﻿<?xml version="1.0" encoding="UTF-8" standalone="no" ?>
<gpx xmlns="http://www.topografix.com/GPX/1/1" creator="CompeGPS" version="1.1" xmlns:xsi="http://www.w3.org/2001/XMLSchema-instance" xsi:schemaLocation="http://www.topografix.com/GPX/1/1 http://www.topografix.com/GPX/1/1/gpx.xsd http://www.garmin.com/xmlschemas/GpxExtensions/v3 http://www.garmin.com/xmlschemas/GpxExtensionsv3.xsd http://www.garmin.com/xmlschemas/TrackPointExtension/v1 http://www.garmin.com/xmlschemas/TrackPointExtensionv1.xsd" xmlns:gpxtpx="http://www.garmin.com/xmlschemas/TrackPointExtension/v1">
  <metadata>
    <link href="http://www.compegps.com">
      <text>CompeGPS TEAM, SL</text>
    </link>
    <time>2015-08-25T15:31:41Z</time>
    <bounds maxlat="43.758519" maxlon="1.986559" minlat="43.739509" minlon="1.968221"/>
  </metadata>
  <trk>
    <name>graulhet</name>
    <trkseg>
      <trkpt lat="43.758479" lon="1.971128">
        <ele>172.0</ele>
        <time>2015-08-25T11:53:56Z</time>
      </trkpt>
      <trkpt lat="43.758373" lon="1.971165">
        <ele>172.3</ele>
        <time>2015-08-25T11:54:00Z</time>
      </trkpt>
      <trkpt lat="43.758262" lon="1.971183">
        <ele>173.3</ele>
        <time>2015-08-25T11:54:04Z</time>
      </trkpt>
      <trkpt lat="43.758145" lon="1.971209">
        <ele>174.6</ele>
        <time>2015-08-25T11:54:08Z</time>
      </trkpt>
      <trkpt lat="43.758035" lon="1.971234">
        <ele>175.7</ele>
        <time>2015-08-25T11:54:12Z</time>
      </trkpt>
      <trkpt lat="43.757928" lon="1.971282">
        <ele>176.9</ele>
        <time>2015-08-25T11:54:16Z</time>
      </trkpt>
      <trkpt lat="43.757823" lon="1.971324">
        <ele>178.6</ele>
        <time>2015-08-25T11:54:20Z</time>
      </trkpt>
      <trkpt lat="43.757703" lon="1.971361">
        <ele>180.6</ele>
        <time>2015-08-25T11:54:24Z</time>
      </trkpt>
      <trkpt lat="43.757611" lon="1.971390">
        <ele>182.1</ele>
        <time>2015-08-25T11:54:27Z</time>
      </trkpt>
      <trkpt lat="43.757524" lon="1.971420">
        <ele>183.1</ele>
        <time>2015-08-25T11:54:31Z</time>
      </trkpt>
      <trkpt lat="43.757419" lon="1.971449">
        <ele>185.4</ele>
        <time>2015-08-25T11:54:36Z</time>
      </trkpt>
      <trkpt lat="43.757309" lon="1.971470">
        <ele>186.4</ele>
        <time>2015-08-25T11:54:40Z</time>
      </trkpt>
      <trkpt lat="43.757290" lon="1.971587">
        <ele>191.1</ele>
        <time>2015-08-25T11:57:34Z</time>
      </trkpt>
      <trkpt lat="43.757241" lon="1.971690">
        <ele>190.1</ele>
        <time>2015-08-25T11:57:41Z</time>
      </trkpt>
      <trkpt lat="43.757181" lon="1.971789">
        <ele>189.0</ele>
        <time>2015-08-25T11:57:48Z</time>
      </trkpt>
      <trkpt lat="43.757090" lon="1.971877">
        <ele>190.0</ele>
        <time>2015-08-25T11:57:56Z</time>
      </trkpt>
      <trkpt lat="43.757029" lon="1.971954">
        <ele>189.1</ele>
        <time>2015-08-25T11:58:22Z</time>
      </trkpt>
      <trkpt lat="43.756974" lon="1.972072">
        <ele>190.0</ele>
        <time>2015-08-25T11:58:27Z</time>
      </trkpt>
      <trkpt lat="43.756929" lon="1.972197">
        <ele>191.1</ele>
        <time>2015-08-25T11:58:31Z</time>
      </trkpt>
      <trkpt lat="43.756861" lon="1.972292">
        <ele>192.9</ele>
        <time>2015-08-25T11:58:35Z</time>
      </trkpt>
      <trkpt lat="43.756776" lon="1.972383">
        <ele>196.1</ele>
        <time>2015-08-25T11:58:40Z</time>
      </trkpt>
      <trkpt lat="43.756828" lon="1.972519">
        <ele>199.8</ele>
        <time>2015-08-25T12:00:26Z</time>
      </trkpt>
      <trkpt lat="43.756977" lon="1.972574">
        <ele>198.5</ele>
        <time>2015-08-25T12:00:30Z</time>
      </trkpt>
      <trkpt lat="43.757083" lon="1.972585">
        <ele>197.8</ele>
        <time>2015-08-25T12:00:32Z</time>
      </trkpt>
      <trkpt lat="43.757179" lon="1.972588">
        <ele>197.0</ele>
        <time>2015-08-25T12:00:34Z</time>
      </trkpt>
      <trkpt lat="43.757276" lon="1.972594">
        <ele>196.2</ele>
        <time>2015-08-25T12:00:36Z</time>
      </trkpt>
      <trkpt lat="43.757386" lon="1.972657">
        <ele>196.5</ele>
        <time>2015-08-25T12:00:39Z</time>
      </trkpt>
      <trkpt lat="43.757475" lon="1.972711">
        <ele>196.8</ele>
        <time>2015-08-25T12:00:43Z</time>
      </trkpt>
      <trkpt lat="43.757561" lon="1.972771">
        <ele>196.4</ele>
        <time>2015-08-25T12:00:49Z</time>
      </trkpt>
      <trkpt lat="43.757628" lon="1.972857">
        <ele>196.2</ele>
        <time>2015-08-25T12:00:55Z</time>
      </trkpt>
      <trkpt lat="43.757692" lon="1.972951">
        <ele>197.8</ele>
        <time>2015-08-25T12:01:03Z</time>
      </trkpt>
      <trkpt lat="43.757787" lon="1.973031">
        <ele>196.3</ele>
        <time>2015-08-25T12:02:37Z</time>
      </trkpt>
      <trkpt lat="43.757856" lon="1.973125">
        <ele>195.6</ele>
        <time>2015-08-25T12:02:43Z</time>
      </trkpt>
      <trkpt lat="43.757913" lon="1.973249">
        <ele>195.7</ele>
        <time>2015-08-25T12:02:50Z</time>
      </trkpt>
      <trkpt lat="43.757961" lon="1.973391">
        <ele>195.3</ele>
        <time>2015-08-25T12:02:58Z</time>
      </trkpt>
      <trkpt lat="43.757990" lon="1.973517">
        <ele>194.6</ele>
        <time>2015-08-25T12:03:06Z</time>
      </trkpt>
      <trkpt lat="43.757906" lon="1.973576">
        <ele>193.8</ele>
        <time>2015-08-25T12:03:14Z</time>
      </trkpt>
      <trkpt lat="43.757794" lon="1.973618">
        <ele>193.4</ele>
        <time>2015-08-25T12:03:22Z</time>
      </trkpt>
      <trkpt lat="43.757700" lon="1.973674">
        <ele>192.7</ele>
        <time>2015-08-25T12:03:29Z</time>
      </trkpt>
      <trkpt lat="43.757617" lon="1.973741">
        <ele>192.3</ele>
        <time>2015-08-25T12:03:38Z</time>
      </trkpt>
      <trkpt lat="43.757536" lon="1.973838">
        <ele>191.8</ele>
        <time>2015-08-25T12:03:45Z</time>
      </trkpt>
      <trkpt lat="43.757561" lon="1.973857">
        <ele>192.9</ele>
        <time>2015-08-25T12:04:03Z</time>
      </trkpt>
      <trkpt lat="43.757534" lon="1.973932">
        <ele>198.2</ele>
        <time>2015-08-25T12:04:53Z</time>
      </trkpt>
      <trkpt lat="43.757538" lon="1.974099">
        <ele>198.6</ele>
        <time>2015-08-25T12:04:59Z</time>
      </trkpt>
      <trkpt lat="43.757561" lon="1.974242">
        <ele>199.3</ele>
        <time>2015-08-25T12:05:03Z</time>
      </trkpt>
      <trkpt lat="43.757579" lon="1.974403">
        <ele>200.2</ele>
        <time>2015-08-25T12:05:07Z</time>
      </trkpt>
      <trkpt lat="43.757602" lon="1.974545">
        <ele>200.7</ele>
        <time>2015-08-25T12:05:11Z</time>
      </trkpt>
      <trkpt lat="43.757592" lon="1.974672">
        <ele>202.3</ele>
        <time>2015-08-25T12:05:17Z</time>
      </trkpt>
      <trkpt lat="43.757507" lon="1.974733">
        <ele>200.3</ele>
        <time>2015-08-25T12:05:42Z</time>
      </trkpt>
      <trkpt lat="43.757403" lon="1.974720">
        <ele>200.3</ele>
        <time>2015-08-25T12:05:48Z</time>
      </trkpt>
      <trkpt lat="43.757294" lon="1.974706">
        <ele>200.7</ele>
        <time>2015-08-25T12:05:53Z</time>
      </trkpt>
      <trkpt lat="43.757185" lon="1.974705">
        <ele>200.7</ele>
        <time>2015-08-25T12:05:58Z</time>
      </trkpt>
      <trkpt lat="43.757079" lon="1.974698">
        <ele>200.8</ele>
        <time>2015-08-25T12:06:04Z</time>
      </trkpt>
      <trkpt lat="43.756983" lon="1.974698">
        <ele>200.4</ele>
        <time>2015-08-25T12:06:10Z</time>
      </trkpt>
      <trkpt lat="43.756883" lon="1.974688">
        <ele>201.1</ele>
        <time>2015-08-25T12:06:15Z</time>
      </trkpt>
      <trkpt lat="43.756797" lon="1.974683">
        <ele>200.8</ele>
        <time>2015-08-25T12:06:20Z</time>
      </trkpt>
      <trkpt lat="43.756705" lon="1.974664">
        <ele>199.4</ele>
        <time>2015-08-25T12:06:25Z</time>
      </trkpt>
      <trkpt lat="43.756584" lon="1.974657">
        <ele>200.2</ele>
        <time>2015-08-25T12:06:31Z</time>
      </trkpt>
      <trkpt lat="43.756479" lon="1.974671">
        <ele>201.8</ele>
        <time>2015-08-25T12:06:36Z</time>
      </trkpt>
      <trkpt lat="43.756387" lon="1.974659">
        <ele>202.6</ele>
        <time>2015-08-25T12:06:41Z</time>
      </trkpt>
      <trkpt lat="43.756282" lon="1.974675">
        <ele>203.6</ele>
        <time>2015-08-25T12:06:46Z</time>
      </trkpt>
      <trkpt lat="43.756172" lon="1.974697">
        <ele>205.9</ele>
        <time>2015-08-25T12:06:51Z</time>
      </trkpt>
      <trkpt lat="43.756058" lon="1.974717">
        <ele>208.0</ele>
        <time>2015-08-25T12:06:56Z</time>
      </trkpt>
      <trkpt lat="43.755951" lon="1.974740">
        <ele>208.9</ele>
        <time>2015-08-25T12:07:01Z</time>
      </trkpt>
      <trkpt lat="43.755849" lon="1.974763">
        <ele>209.9</ele>
        <time>2015-08-25T12:07:06Z</time>
      </trkpt>
      <trkpt lat="43.755744" lon="1.974770">
        <ele>210.5</ele>
        <time>2015-08-25T12:07:11Z</time>
      </trkpt>
      <trkpt lat="43.755635" lon="1.974777">
        <ele>209.9</ele>
        <time>2015-08-25T12:07:16Z</time>
      </trkpt>
      <trkpt lat="43.755531" lon="1.974814">
        <ele>209.0</ele>
        <time>2015-08-25T12:07:21Z</time>
      </trkpt>
      <trkpt lat="43.755435" lon="1.974867">
        <ele>208.1</ele>
        <time>2015-08-25T12:07:26Z</time>
      </trkpt>
      <trkpt lat="43.755335" lon="1.974923">
        <ele>208.5</ele>
        <time>2015-08-25T12:07:31Z</time>
      </trkpt>
      <trkpt lat="43.755235" lon="1.975017">
        <ele>208.7</ele>
        <time>2015-08-25T12:07:36Z</time>
      </trkpt>
      <trkpt lat="43.755136" lon="1.975073">
        <ele>211.5</ele>
        <time>2015-08-25T12:07:40Z</time>
      </trkpt>
      <trkpt lat="43.755041" lon="1.975145">
        <ele>211.8</ele>
        <time>2015-08-25T12:07:45Z</time>
      </trkpt>
      <trkpt lat="43.754966" lon="1.975229">
        <ele>211.9</ele>
        <time>2015-08-25T12:07:50Z</time>
      </trkpt>
      <trkpt lat="43.754867" lon="1.975276">
        <ele>212.9</ele>
        <time>2015-08-25T12:07:55Z</time>
      </trkpt>
      <trkpt lat="43.754773" lon="1.975354">
        <ele>212.8</ele>
        <time>2015-08-25T12:08:00Z</time>
      </trkpt>
      <trkpt lat="43.754689" lon="1.975421">
        <ele>212.6</ele>
        <time>2015-08-25T12:08:04Z</time>
      </trkpt>
      <trkpt lat="43.754582" lon="1.975477">
        <ele>213.1</ele>
        <time>2015-08-25T12:08:08Z</time>
      </trkpt>
      <trkpt lat="43.754486" lon="1.975552">
        <ele>213.1</ele>
        <time>2015-08-25T12:08:12Z</time>
      </trkpt>
      <trkpt lat="43.754401" lon="1.975613">
        <ele>213.0</ele>
        <time>2015-08-25T12:08:15Z</time>
      </trkpt>
      <trkpt lat="43.754310" lon="1.975660">
        <ele>213.6</ele>
        <time>2015-08-25T12:08:18Z</time>
      </trkpt>
      <trkpt lat="43.754212" lon="1.975743">
        <ele>213.7</ele>
        <time>2015-08-25T12:08:22Z</time>
      </trkpt>
      <trkpt lat="43.754118" lon="1.975807">
        <ele>214.3</ele>
        <time>2015-08-25T12:08:26Z</time>
      </trkpt>
      <trkpt lat="43.754030" lon="1.975858">
        <ele>214.2</ele>
        <time>2015-08-25T12:08:30Z</time>
      </trkpt>
      <trkpt lat="43.753929" lon="1.975920">
        <ele>214.0</ele>
        <time>2015-08-25T12:08:34Z</time>
      </trkpt>
      <trkpt lat="43.753840" lon="1.975980">
        <ele>213.5</ele>
        <time>2015-08-25T12:08:37Z</time>
      </trkpt>
      <trkpt lat="43.753739" lon="1.976031">
        <ele>213.1</ele>
        <time>2015-08-25T12:08:40Z</time>
      </trkpt>
      <trkpt lat="43.753636" lon="1.976083">
        <ele>213.1</ele>
        <time>2015-08-25T12:08:43Z</time>
      </trkpt>
      <trkpt lat="43.753527" lon="1.976136">
        <ele>212.3</ele>
        <time>2015-08-25T12:08:46Z</time>
      </trkpt>
      <trkpt lat="43.753416" lon="1.976196">
        <ele>211.8</ele>
        <time>2015-08-25T12:08:49Z</time>
      </trkpt>
      <trkpt lat="43.753312" lon="1.976243">
        <ele>211.4</ele>
        <time>2015-08-25T12:08:52Z</time>
      </trkpt>
      <trkpt lat="43.753217" lon="1.976288">
        <ele>210.6</ele>
        <time>2015-08-25T12:08:55Z</time>
      </trkpt>
      <trkpt lat="43.753129" lon="1.976330">
        <ele>209.3</ele>
        <time>2015-08-25T12:08:58Z</time>
      </trkpt>
      <trkpt lat="43.753017" lon="1.976378">
        <ele>207.3</ele>
        <time>2015-08-25T12:09:02Z</time>
      </trkpt>
      <trkpt lat="43.752909" lon="1.976414">
        <ele>205.0</ele>
        <time>2015-08-25T12:09:06Z</time>
      </trkpt>
      <trkpt lat="43.752792" lon="1.976473">
        <ele>203.2</ele>
        <time>2015-08-25T12:09:10Z</time>
      </trkpt>
      <trkpt lat="43.752698" lon="1.976517">
        <ele>202.1</ele>
        <time>2015-08-25T12:09:13Z</time>
      </trkpt>
      <trkpt lat="43.752567" lon="1.976576">
        <ele>203.6</ele>
        <time>2015-08-25T12:09:17Z</time>
      </trkpt>
      <trkpt lat="43.752454" lon="1.976617">
        <ele>203.4</ele>
        <time>2015-08-25T12:09:20Z</time>
      </trkpt>
      <trkpt lat="43.752344" lon="1.976677">
        <ele>203.7</ele>
        <time>2015-08-25T12:09:23Z</time>
      </trkpt>
      <trkpt lat="43.752228" lon="1.976732">
        <ele>203.0</ele>
        <time>2015-08-25T12:09:26Z</time>
      </trkpt>
      <trkpt lat="43.752109" lon="1.976774">
        <ele>203.2</ele>
        <time>2015-08-25T12:09:29Z</time>
      </trkpt>
      <trkpt lat="43.751994" lon="1.976815">
        <ele>204.0</ele>
        <time>2015-08-25T12:09:32Z</time>
      </trkpt>
      <trkpt lat="43.751872" lon="1.976861">
        <ele>205.5</ele>
        <time>2015-08-25T12:09:35Z</time>
      </trkpt>
      <trkpt lat="43.751752" lon="1.976886">
        <ele>206.3</ele>
        <time>2015-08-25T12:09:38Z</time>
      </trkpt>
      <trkpt lat="43.751631" lon="1.976912">
        <ele>206.6</ele>
        <time>2015-08-25T12:09:41Z</time>
      </trkpt>
      <trkpt lat="43.751505" lon="1.976933">
        <ele>208.2</ele>
        <time>2015-08-25T12:09:44Z</time>
      </trkpt>
      <trkpt lat="43.751378" lon="1.976965">
        <ele>209.5</ele>
        <time>2015-08-25T12:09:47Z</time>
      </trkpt>
      <trkpt lat="43.751253" lon="1.977006">
        <ele>210.3</ele>
        <time>2015-08-25T12:09:50Z</time>
      </trkpt>
      <trkpt lat="43.751132" lon="1.977051">
        <ele>211.3</ele>
        <time>2015-08-25T12:09:53Z</time>
      </trkpt>
      <trkpt lat="43.751014" lon="1.977096">
        <ele>211.4</ele>
        <time>2015-08-25T12:09:56Z</time>
      </trkpt>
      <trkpt lat="43.750898" lon="1.977139">
        <ele>212.0</ele>
        <time>2015-08-25T12:09:59Z</time>
      </trkpt>
      <trkpt lat="43.750785" lon="1.977180">
        <ele>212.4</ele>
        <time>2015-08-25T12:10:02Z</time>
      </trkpt>
      <trkpt lat="43.750681" lon="1.977208">
        <ele>212.7</ele>
        <time>2015-08-25T12:10:05Z</time>
      </trkpt>
      <trkpt lat="43.750575" lon="1.977263">
        <ele>212.9</ele>
        <time>2015-08-25T12:10:08Z</time>
      </trkpt>
      <trkpt lat="43.750469" lon="1.977315">
        <ele>212.9</ele>
        <time>2015-08-25T12:10:11Z</time>
      </trkpt>
      <trkpt lat="43.750368" lon="1.977355">
        <ele>212.3</ele>
        <time>2015-08-25T12:10:14Z</time>
      </trkpt>
      <trkpt lat="43.750277" lon="1.977392">
        <ele>212.5</ele>
        <time>2015-08-25T12:10:17Z</time>
      </trkpt>
      <trkpt lat="43.750246" lon="1.977556">
        <ele>219.4</ele>
        <time>2015-08-25T12:11:29Z</time>
      </trkpt>
      <trkpt lat="43.750265" lon="1.977732">
        <ele>219.1</ele>
        <time>2015-08-25T12:11:45Z</time>
      </trkpt>
      <trkpt lat="43.750297" lon="1.977887">
        <ele>218.5</ele>
        <time>2015-08-25T12:11:50Z</time>
      </trkpt>
      <trkpt lat="43.750323" lon="1.978031">
        <ele>218.1</ele>
        <time>2015-08-25T12:11:55Z</time>
      </trkpt>
      <trkpt lat="43.750349" lon="1.978159">
        <ele>217.8</ele>
        <time>2015-08-25T12:12:02Z</time>
      </trkpt>
      <trkpt lat="43.750385" lon="1.978273">
        <ele>214.5</ele>
        <time>2015-08-25T12:12:44Z</time>
      </trkpt>
      <trkpt lat="43.750387" lon="1.978415">
        <ele>214.2</ele>
        <time>2015-08-25T12:12:48Z</time>
      </trkpt>
      <trkpt lat="43.750382" lon="1.978547">
        <ele>213.8</ele>
        <time>2015-08-25T12:12:51Z</time>
      </trkpt>
      <trkpt lat="43.750382" lon="1.978689">
        <ele>212.2</ele>
        <time>2015-08-25T12:12:54Z</time>
      </trkpt>
      <trkpt lat="43.750393" lon="1.978854">
        <ele>209.7</ele>
        <time>2015-08-25T12:12:57Z</time>
      </trkpt>
      <trkpt lat="43.750395" lon="1.979008">
        <ele>207.1</ele>
        <time>2015-08-25T12:13:00Z</time>
      </trkpt>
      <trkpt lat="43.750400" lon="1.979176">
        <ele>203.2</ele>
        <time>2015-08-25T12:13:03Z</time>
      </trkpt>
      <trkpt lat="43.750404" lon="1.979355">
        <ele>199.6</ele>
        <time>2015-08-25T12:13:06Z</time>
      </trkpt>
      <trkpt lat="43.750419" lon="1.979540">
        <ele>196.1</ele>
        <time>2015-08-25T12:13:09Z</time>
      </trkpt>
      <trkpt lat="43.750433" lon="1.979709">
        <ele>193.0</ele>
        <time>2015-08-25T12:13:12Z</time>
      </trkpt>
      <trkpt lat="43.750453" lon="1.979889">
        <ele>190.6</ele>
        <time>2015-08-25T12:13:15Z</time>
      </trkpt>
      <trkpt lat="43.750492" lon="1.980047">
        <ele>187.8</ele>
        <time>2015-08-25T12:13:18Z</time>
      </trkpt>
      <trkpt lat="43.750514" lon="1.980211">
        <ele>185.2</ele>
        <time>2015-08-25T12:13:21Z</time>
      </trkpt>
      <trkpt lat="43.750536" lon="1.980365">
        <ele>183.2</ele>
        <time>2015-08-25T12:13:24Z</time>
      </trkpt>
      <trkpt lat="43.750559" lon="1.980497">
        <ele>182.4</ele>
        <time>2015-08-25T12:13:27Z</time>
      </trkpt>
      <trkpt lat="43.750550" lon="1.980646">
        <ele>181.3</ele>
        <time>2015-08-25T12:13:31Z</time>
      </trkpt>
      <trkpt lat="43.750481" lon="1.980718">
        <ele>180.5</ele>
        <time>2015-08-25T12:13:35Z</time>
      </trkpt>
      <trkpt lat="43.750375" lon="1.980716">
        <ele>183.1</ele>
        <time>2015-08-25T12:13:40Z</time>
      </trkpt>
      <trkpt lat="43.750281" lon="1.980735">
        <ele>185.0</ele>
        <time>2015-08-25T12:13:44Z</time>
      </trkpt>
      <trkpt lat="43.750177" lon="1.980742">
        <ele>186.0</ele>
        <time>2015-08-25T12:13:48Z</time>
      </trkpt>
      <trkpt lat="43.750081" lon="1.980777">
        <ele>188.1</ele>
        <time>2015-08-25T12:13:52Z</time>
      </trkpt>
      <trkpt lat="43.749968" lon="1.980799">
        <ele>190.4</ele>
        <time>2015-08-25T12:13:57Z</time>
      </trkpt>
      <trkpt lat="43.749846" lon="1.980811">
        <ele>193.3</ele>
        <time>2015-08-25T12:14:02Z</time>
      </trkpt>
      <trkpt lat="43.749729" lon="1.980830">
        <ele>195.5</ele>
        <time>2015-08-25T12:14:07Z</time>
      </trkpt>
      <trkpt lat="43.749627" lon="1.980838">
        <ele>196.1</ele>
        <time>2015-08-25T12:14:11Z</time>
      </trkpt>
      <trkpt lat="43.749518" lon="1.980861">
        <ele>197.3</ele>
        <time>2015-08-25T12:14:16Z</time>
      </trkpt>
      <trkpt lat="43.749414" lon="1.980868">
        <ele>198.7</ele>
        <time>2015-08-25T12:14:20Z</time>
      </trkpt>
      <trkpt lat="43.749323" lon="1.980885">
        <ele>200.2</ele>
        <time>2015-08-25T12:14:24Z</time>
      </trkpt>
      <trkpt lat="43.749219" lon="1.980901">
        <ele>201.4</ele>
        <time>2015-08-25T12:14:29Z</time>
      </trkpt>
      <trkpt lat="43.749123" lon="1.980912">
        <ele>202.3</ele>
        <time>2015-08-25T12:14:34Z</time>
      </trkpt>
      <trkpt lat="43.749014" lon="1.980911">
        <ele>203.3</ele>
        <time>2015-08-25T12:14:39Z</time>
      </trkpt>
      <trkpt lat="43.748915" lon="1.980915">
        <ele>202.6</ele>
        <time>2015-08-25T12:14:44Z</time>
      </trkpt>
      <trkpt lat="43.748817" lon="1.980897">
        <ele>202.5</ele>
        <time>2015-08-25T12:14:50Z</time>
      </trkpt>
      <trkpt lat="43.748722" lon="1.980896">
        <ele>202.9</ele>
        <time>2015-08-25T12:14:56Z</time>
      </trkpt>
      <trkpt lat="43.748647" lon="1.980901">
        <ele>203.5</ele>
        <time>2015-08-25T12:15:07Z</time>
      </trkpt>
      <trkpt lat="43.748577" lon="1.980852">
        <ele>204.6</ele>
        <time>2015-08-25T12:16:51Z</time>
      </trkpt>
      <trkpt lat="43.748473" lon="1.980821">
        <ele>204.7</ele>
        <time>2015-08-25T12:16:56Z</time>
      </trkpt>
      <trkpt lat="43.748376" lon="1.980812">
        <ele>205.2</ele>
        <time>2015-08-25T12:17:00Z</time>
      </trkpt>
      <trkpt lat="43.748280" lon="1.980813">
        <ele>205.9</ele>
        <time>2015-08-25T12:17:06Z</time>
      </trkpt>
      <trkpt lat="43.748186" lon="1.980835">
        <ele>206.0</ele>
        <time>2015-08-25T12:17:12Z</time>
      </trkpt>
      <trkpt lat="43.748084" lon="1.980834">
        <ele>206.4</ele>
        <time>2015-08-25T12:17:19Z</time>
      </trkpt>
      <trkpt lat="43.747982" lon="1.980825">
        <ele>207.2</ele>
        <time>2015-08-25T12:17:28Z</time>
      </trkpt>
      <trkpt lat="43.747884" lon="1.980833">
        <ele>207.4</ele>
        <time>2015-08-25T12:17:39Z</time>
      </trkpt>
      <trkpt lat="43.747757" lon="1.980828">
        <ele>206.5</ele>
        <time>2015-08-25T12:17:48Z</time>
      </trkpt>
      <trkpt lat="43.747551" lon="1.980821">
        <ele>206.3</ele>
        <time>2015-08-25T12:17:56Z</time>
      </trkpt>
      <trkpt lat="43.747395" lon="1.980808">
        <ele>207.6</ele>
        <time>2015-08-25T12:18:03Z</time>
      </trkpt>
      <trkpt lat="43.747280" lon="1.980792">
        <ele>208.6</ele>
        <time>2015-08-25T12:18:08Z</time>
      </trkpt>
      <trkpt lat="43.747165" lon="1.980795">
        <ele>209.7</ele>
        <time>2015-08-25T12:18:13Z</time>
      </trkpt>
      <trkpt lat="43.747050" lon="1.980791">
        <ele>210.4</ele>
        <time>2015-08-25T12:18:18Z</time>
      </trkpt>
      <trkpt lat="43.746938" lon="1.980767">
        <ele>211.1</ele>
        <time>2015-08-25T12:18:23Z</time>
      </trkpt>
      <trkpt lat="43.746818" lon="1.980760">
        <ele>211.5</ele>
        <time>2015-08-25T12:18:28Z</time>
      </trkpt>
      <trkpt lat="43.746711" lon="1.980747">
        <ele>212.8</ele>
        <time>2015-08-25T12:18:33Z</time>
      </trkpt>
      <trkpt lat="43.746609" lon="1.980740">
        <ele>214.5</ele>
        <time>2015-08-25T12:18:38Z</time>
      </trkpt>
      <trkpt lat="43.746499" lon="1.980720">
        <ele>217.0</ele>
        <time>2015-08-25T12:18:43Z</time>
      </trkpt>
      <trkpt lat="43.746386" lon="1.980705">
        <ele>218.7</ele>
        <time>2015-08-25T12:18:50Z</time>
      </trkpt>
      <trkpt lat="43.746286" lon="1.980691">
        <ele>219.8</ele>
        <time>2015-08-25T12:18:56Z</time>
      </trkpt>
      <trkpt lat="43.746163" lon="1.980652">
        <ele>221.1</ele>
        <time>2015-08-25T12:19:01Z</time>
      </trkpt>
      <trkpt lat="43.746064" lon="1.980624">
        <ele>221.7</ele>
        <time>2015-08-25T12:19:06Z</time>
      </trkpt>
      <trkpt lat="43.745960" lon="1.980585">
        <ele>222.8</ele>
        <time>2015-08-25T12:19:12Z</time>
      </trkpt>
      <trkpt lat="43.745855" lon="1.980550">
        <ele>223.8</ele>
        <time>2015-08-25T12:19:17Z</time>
      </trkpt>
      <trkpt lat="43.745747" lon="1.980506">
        <ele>223.6</ele>
        <time>2015-08-25T12:19:21Z</time>
      </trkpt>
      <trkpt lat="43.745631" lon="1.980459">
        <ele>222.6</ele>
        <time>2015-08-25T12:19:25Z</time>
      </trkpt>
      <trkpt lat="43.745520" lon="1.980411">
        <ele>222.3</ele>
        <time>2015-08-25T12:19:29Z</time>
      </trkpt>
      <trkpt lat="43.745431" lon="1.980368">
        <ele>222.2</ele>
        <time>2015-08-25T12:19:32Z</time>
      </trkpt>
      <trkpt lat="43.745327" lon="1.980317">
        <ele>222.5</ele>
        <time>2015-08-25T12:19:36Z</time>
      </trkpt>
      <trkpt lat="43.745251" lon="1.980216">
        <ele>223.2</ele>
        <time>2015-08-25T12:19:41Z</time>
      </trkpt>
      <trkpt lat="43.745175" lon="1.980084">
        <ele>222.6</ele>
        <time>2015-08-25T12:19:46Z</time>
      </trkpt>
      <trkpt lat="43.745088" lon="1.979953">
        <ele>220.7</ele>
        <time>2015-08-25T12:19:49Z</time>
      </trkpt>
      <trkpt lat="43.745015" lon="1.979850">
        <ele>219.2</ele>
        <time>2015-08-25T12:19:51Z</time>
      </trkpt>
      <trkpt lat="43.744948" lon="1.979751">
        <ele>218.9</ele>
        <time>2015-08-25T12:19:53Z</time>
      </trkpt>
      <trkpt lat="43.744867" lon="1.979667">
        <ele>218.7</ele>
        <time>2015-08-25T12:19:55Z</time>
      </trkpt>
      <trkpt lat="43.744773" lon="1.979603">
        <ele>217.8</ele>
        <time>2015-08-25T12:19:57Z</time>
      </trkpt>
      <trkpt lat="43.744677" lon="1.979545">
        <ele>217.0</ele>
        <time>2015-08-25T12:19:59Z</time>
      </trkpt>
      <trkpt lat="43.744579" lon="1.979486">
        <ele>216.6</ele>
        <time>2015-08-25T12:20:01Z</time>
      </trkpt>
      <trkpt lat="43.744438" lon="1.979390">
        <ele>217.6</ele>
        <time>2015-08-25T12:20:04Z</time>
      </trkpt>
      <trkpt lat="43.744325" lon="1.979332">
        <ele>218.5</ele>
        <time>2015-08-25T12:20:07Z</time>
      </trkpt>
      <trkpt lat="43.744224" lon="1.979287">
        <ele>219.6</ele>
        <time>2015-08-25T12:20:10Z</time>
      </trkpt>
      <trkpt lat="43.744093" lon="1.979229">
        <ele>220.6</ele>
        <time>2015-08-25T12:20:14Z</time>
      </trkpt>
      <trkpt lat="43.743976" lon="1.979146">
        <ele>220.5</ele>
        <time>2015-08-25T12:20:18Z</time>
      </trkpt>
      <trkpt lat="43.743880" lon="1.979102">
        <ele>221.6</ele>
        <time>2015-08-25T12:20:21Z</time>
      </trkpt>
      <trkpt lat="43.743772" lon="1.979033">
        <ele>221.1</ele>
        <time>2015-08-25T12:20:25Z</time>
      </trkpt>
      <trkpt lat="43.743657" lon="1.978970">
        <ele>220.4</ele>
        <time>2015-08-25T12:20:29Z</time>
      </trkpt>
      <trkpt lat="43.743531" lon="1.978948">
        <ele>221.7</ele>
        <time>2015-08-25T12:20:33Z</time>
      </trkpt>
      <trkpt lat="43.743424" lon="1.978916">
        <ele>223.3</ele>
        <time>2015-08-25T12:20:37Z</time>
      </trkpt>
      <trkpt lat="43.743313" lon="1.978911">
        <ele>225.0</ele>
        <time>2015-08-25T12:20:41Z</time>
      </trkpt>
      <trkpt lat="43.743191" lon="1.978935">
        <ele>224.5</ele>
        <time>2015-08-25T12:20:45Z</time>
      </trkpt>
      <trkpt lat="43.743073" lon="1.978952">
        <ele>226.0</ele>
        <time>2015-08-25T12:20:49Z</time>
      </trkpt>
      <trkpt lat="43.742963" lon="1.979010">
        <ele>226.5</ele>
        <time>2015-08-25T12:20:53Z</time>
      </trkpt>
      <trkpt lat="43.742862" lon="1.979027">
        <ele>227.3</ele>
        <time>2015-08-25T12:20:56Z</time>
      </trkpt>
      <trkpt lat="43.742736" lon="1.979028">
        <ele>228.9</ele>
        <time>2015-08-25T12:20:59Z</time>
      </trkpt>
      <trkpt lat="43.742639" lon="1.979028">
        <ele>229.7</ele>
        <time>2015-08-25T12:21:01Z</time>
      </trkpt>
      <trkpt lat="43.742525" lon="1.979012">
        <ele>230.1</ele>
        <time>2015-08-25T12:21:04Z</time>
      </trkpt>
      <trkpt lat="43.742420" lon="1.979001">
        <ele>230.6</ele>
        <time>2015-08-25T12:21:07Z</time>
      </trkpt>
      <trkpt lat="43.742331" lon="1.978980">
        <ele>231.5</ele>
        <time>2015-08-25T12:21:10Z</time>
      </trkpt>
      <trkpt lat="43.742250" lon="1.978941">
        <ele>233.1</ele>
        <time>2015-08-25T12:21:14Z</time>
      </trkpt>
      <trkpt lat="43.742160" lon="1.978870">
        <ele>234.4</ele>
        <time>2015-08-25T12:21:19Z</time>
      </trkpt>
      <trkpt lat="43.742093" lon="1.978776">
        <ele>235.8</ele>
        <time>2015-08-25T12:21:23Z</time>
      </trkpt>
      <trkpt lat="43.742018" lon="1.978690">
        <ele>236.5</ele>
        <time>2015-08-25T12:21:27Z</time>
      </trkpt>
      <trkpt lat="43.741913" lon="1.978608">
        <ele>237.9</ele>
        <time>2015-08-25T12:21:32Z</time>
      </trkpt>
      <trkpt lat="43.741825" lon="1.978621">
        <ele>235.3</ele>
        <time>2015-08-25T12:22:10Z</time>
      </trkpt>
      <trkpt lat="43.741756" lon="1.978723">
        <ele>235.1</ele>
        <time>2015-08-25T12:22:16Z</time>
      </trkpt>
      <trkpt lat="43.741694" lon="1.978798">
        <ele>234.9</ele>
        <time>2015-08-25T12:22:27Z</time>
      </trkpt>
      <trkpt lat="43.741604" lon="1.978917">
        <ele>234.0</ele>
        <time>2015-08-25T12:22:50Z</time>
      </trkpt>
      <trkpt lat="43.741531" lon="1.979019">
        <ele>234.1</ele>
        <time>2015-08-25T12:22:52Z</time>
      </trkpt>
      <trkpt lat="43.741447" lon="1.979134">
        <ele>234.3</ele>
        <time>2015-08-25T12:22:54Z</time>
      </trkpt>
      <trkpt lat="43.741342" lon="1.979261">
        <ele>234.4</ele>
        <time>2015-08-25T12:22:56Z</time>
      </trkpt>
      <trkpt lat="43.741224" lon="1.979392">
        <ele>233.9</ele>
        <time>2015-08-25T12:22:58Z</time>
      </trkpt>
      <trkpt lat="43.741101" lon="1.979524">
        <ele>233.5</ele>
        <time>2015-08-25T12:23:00Z</time>
      </trkpt>
      <trkpt lat="43.740961" lon="1.979646">
        <ele>232.6</ele>
        <time>2015-08-25T12:23:02Z</time>
      </trkpt>
      <trkpt lat="43.740824" lon="1.979745">
        <ele>231.2</ele>
        <time>2015-08-25T12:23:04Z</time>
      </trkpt>
      <trkpt lat="43.740694" lon="1.979884">
        <ele>230.7</ele>
        <time>2015-08-25T12:23:06Z</time>
      </trkpt>
      <trkpt lat="43.740615" lon="1.980055">
        <ele>228.5</ele>
        <time>2015-08-25T12:23:08Z</time>
      </trkpt>
      <trkpt lat="43.740557" lon="1.980243">
        <ele>226.0</ele>
        <time>2015-08-25T12:23:10Z</time>
      </trkpt>
      <trkpt lat="43.740516" lon="1.980438">
        <ele>222.8</ele>
        <time>2015-08-25T12:23:12Z</time>
      </trkpt>
      <trkpt lat="43.740506" lon="1.980648">
        <ele>220.1</ele>
        <time>2015-08-25T12:23:14Z</time>
      </trkpt>
      <trkpt lat="43.740541" lon="1.980877">
        <ele>217.8</ele>
        <time>2015-08-25T12:23:16Z</time>
      </trkpt>
      <trkpt lat="43.740591" lon="1.981095">
        <ele>217.3</ele>
        <time>2015-08-25T12:23:18Z</time>
      </trkpt>
      <trkpt lat="43.740629" lon="1.981295">
        <ele>217.6</ele>
        <time>2015-08-25T12:23:20Z</time>
      </trkpt>
      <trkpt lat="43.740654" lon="1.981476">
        <ele>219.2</ele>
        <time>2015-08-25T12:23:22Z</time>
      </trkpt>
      <trkpt lat="43.740681" lon="1.981632">
        <ele>219.9</ele>
        <time>2015-08-25T12:23:24Z</time>
      </trkpt>
      <trkpt lat="43.740703" lon="1.981772">
        <ele>221.4</ele>
        <time>2015-08-25T12:23:26Z</time>
      </trkpt>
      <trkpt lat="43.740712" lon="1.981926">
        <ele>221.4</ele>
        <time>2015-08-25T12:23:29Z</time>
      </trkpt>
      <trkpt lat="43.740723" lon="1.982066">
        <ele>222.1</ele>
        <time>2015-08-25T12:23:32Z</time>
      </trkpt>
      <trkpt lat="43.740724" lon="1.982218">
        <ele>222.7</ele>
        <time>2015-08-25T12:23:36Z</time>
      </trkpt>
      <trkpt lat="43.740692" lon="1.982380">
        <ele>224.2</ele>
        <time>2015-08-25T12:23:40Z</time>
      </trkpt>
      <trkpt lat="43.740636" lon="1.982500">
        <ele>225.5</ele>
        <time>2015-08-25T12:23:43Z</time>
      </trkpt>
      <trkpt lat="43.740578" lon="1.982621">
        <ele>224.5</ele>
        <time>2015-08-25T12:23:46Z</time>
      </trkpt>
      <trkpt lat="43.740500" lon="1.982738">
        <ele>224.7</ele>
        <time>2015-08-25T12:23:50Z</time>
      </trkpt>
      <trkpt lat="43.740413" lon="1.982824">
        <ele>224.8</ele>
        <time>2015-08-25T12:23:54Z</time>
      </trkpt>
      <trkpt lat="43.740327" lon="1.982893">
        <ele>226.1</ele>
        <time>2015-08-25T12:23:58Z</time>
      </trkpt>
      <trkpt lat="43.740247" lon="1.982976">
        <ele>226.8</ele>
        <time>2015-08-25T12:24:02Z</time>
      </trkpt>
      <trkpt lat="43.740167" lon="1.983066">
        <ele>228.5</ele>
        <time>2015-08-25T12:24:06Z</time>
      </trkpt>
      <trkpt lat="43.740098" lon="1.983166">
        <ele>229.4</ele>
        <time>2015-08-25T12:24:10Z</time>
      </trkpt>
      <trkpt lat="43.740037" lon="1.983270">
        <ele>230.9</ele>
        <time>2015-08-25T12:24:14Z</time>
      </trkpt>
      <trkpt lat="43.739980" lon="1.983391">
        <ele>232.5</ele>
        <time>2015-08-25T12:24:18Z</time>
      </trkpt>
      <trkpt lat="43.739931" lon="1.983513">
        <ele>234.7</ele>
        <time>2015-08-25T12:24:22Z</time>
      </trkpt>
      <trkpt lat="43.739884" lon="1.983636">
        <ele>236.4</ele>
        <time>2015-08-25T12:24:26Z</time>
      </trkpt>
      <trkpt lat="43.739844" lon="1.983754">
        <ele>238.9</ele>
        <time>2015-08-25T12:24:31Z</time>
      </trkpt>
      <trkpt lat="43.739825" lon="1.983923">
        <ele>241.3</ele>
        <time>2015-08-25T12:24:37Z</time>
      </trkpt>
      <trkpt lat="43.739777" lon="1.984070">
        <ele>243.0</ele>
        <time>2015-08-25T12:24:43Z</time>
      </trkpt>
      <trkpt lat="43.739730" lon="1.984180">
        <ele>244.1</ele>
        <time>2015-08-25T12:24:47Z</time>
      </trkpt>
      <trkpt lat="43.739660" lon="1.984277">
        <ele>243.6</ele>
        <time>2015-08-25T12:24:51Z</time>
      </trkpt>
      <trkpt lat="43.739590" lon="1.984386">
        <ele>245.2</ele>
        <time>2015-08-25T12:24:56Z</time>
      </trkpt>
      <trkpt lat="43.739528" lon="1.984516">
        <ele>246.4</ele>
        <time>2015-08-25T12:25:01Z</time>
      </trkpt>
      <trkpt lat="43.739509" lon="1.984658">
        <ele>249.6</ele>
        <time>2015-08-25T12:25:06Z</time>
      </trkpt>
      <trkpt lat="43.739587" lon="1.984750">
        <ele>252.8</ele>
        <time>2015-08-25T12:25:11Z</time>
      </trkpt>
      <trkpt lat="43.739693" lon="1.984754">
        <ele>253.1</ele>
        <time>2015-08-25T12:25:16Z</time>
      </trkpt>
      <trkpt lat="43.739798" lon="1.984735">
        <ele>253.2</ele>
        <time>2015-08-25T12:25:21Z</time>
      </trkpt>
      <trkpt lat="43.739896" lon="1.984734">
        <ele>253.5</ele>
        <time>2015-08-25T12:25:26Z</time>
      </trkpt>
      <trkpt lat="43.739988" lon="1.984794">
        <ele>252.5</ele>
        <time>2015-08-25T12:25:31Z</time>
      </trkpt>
      <trkpt lat="43.739996" lon="1.984914">
        <ele>253.6</ele>
        <time>2015-08-25T12:25:35Z</time>
      </trkpt>
      <trkpt lat="43.739966" lon="1.985044">
        <ele>255.2</ele>
        <time>2015-08-25T12:25:40Z</time>
      </trkpt>
      <trkpt lat="43.739936" lon="1.985171">
        <ele>258.0</ele>
        <time>2015-08-25T12:25:46Z</time>
      </trkpt>
      <trkpt lat="43.739906" lon="1.985298">
        <ele>260.0</ele>
        <time>2015-08-25T12:25:52Z</time>
      </trkpt>
      <trkpt lat="43.739880" lon="1.985429">
        <ele>261.4</ele>
        <time>2015-08-25T12:25:58Z</time>
      </trkpt>
      <trkpt lat="43.739865" lon="1.985570">
        <ele>262.8</ele>
        <time>2015-08-25T12:26:04Z</time>
      </trkpt>
      <trkpt lat="43.739842" lon="1.985702">
        <ele>264.3</ele>
        <time>2015-08-25T12:26:09Z</time>
      </trkpt>
      <trkpt lat="43.739813" lon="1.985833">
        <ele>265.1</ele>
        <time>2015-08-25T12:26:14Z</time>
      </trkpt>
      <trkpt lat="43.739774" lon="1.985951">
        <ele>264.8</ele>
        <time>2015-08-25T12:26:19Z</time>
      </trkpt>
      <trkpt lat="43.739725" lon="1.986068">
        <ele>264.0</ele>
        <time>2015-08-25T12:26:24Z</time>
      </trkpt>
      <trkpt lat="43.739674" lon="1.986198">
        <ele>262.3</ele>
        <time>2015-08-25T12:26:29Z</time>
      </trkpt>
      <trkpt lat="43.739619" lon="1.986328">
        <ele>261.4</ele>
        <time>2015-08-25T12:26:34Z</time>
      </trkpt>
      <trkpt lat="43.739569" lon="1.986436">
        <ele>260.2</ele>
        <time>2015-08-25T12:26:39Z</time>
      </trkpt>
      <trkpt lat="43.739544" lon="1.986559">
        <ele>260.3</ele>
        <time>2015-08-25T12:26:46Z</time>
      </trkpt>
      <trkpt lat="43.739634" lon="1.986558">
        <ele>260.5</ele>
        <time>2015-08-25T12:26:53Z</time>
      </trkpt>
      <trkpt lat="43.739721" lon="1.986504">
        <ele>260.5</ele>
        <time>2015-08-25T12:26:59Z</time>
      </trkpt>
      <trkpt lat="43.739805" lon="1.986426">
        <ele>260.3</ele>
        <time>2015-08-25T12:27:05Z</time>
      </trkpt>
      <trkpt lat="43.739885" lon="1.986324">
        <ele>260.6</ele>
        <time>2015-08-25T12:27:11Z</time>
      </trkpt>
      <trkpt lat="43.739971" lon="1.986240">
        <ele>260.5</ele>
        <time>2015-08-25T12:27:16Z</time>
      </trkpt>
      <trkpt lat="43.740056" lon="1.986171">
        <ele>260.7</ele>
        <time>2015-08-25T12:27:21Z</time>
      </trkpt>
      <trkpt lat="43.740137" lon="1.986084">
        <ele>259.5</ele>
        <time>2015-08-25T12:27:26Z</time>
      </trkpt>
      <trkpt lat="43.740199" lon="1.985988">
        <ele>258.4</ele>
        <time>2015-08-25T12:27:31Z</time>
      </trkpt>
      <trkpt lat="43.740309" lon="1.985874">
        <ele>257.4</ele>
        <time>2015-08-25T12:27:36Z</time>
      </trkpt>
      <trkpt lat="43.740398" lon="1.985782">
        <ele>257.3</ele>
        <time>2015-08-25T12:27:39Z</time>
      </trkpt>
      <trkpt lat="43.740502" lon="1.985683">
        <ele>256.9</ele>
        <time>2015-08-25T12:27:42Z</time>
      </trkpt>
      <trkpt lat="43.740599" lon="1.985606">
        <ele>255.5</ele>
        <time>2015-08-25T12:27:45Z</time>
      </trkpt>
      <trkpt lat="43.740689" lon="1.985535">
        <ele>255.4</ele>
        <time>2015-08-25T12:27:48Z</time>
      </trkpt>
      <trkpt lat="43.740766" lon="1.985451">
        <ele>254.9</ele>
        <time>2015-08-25T12:27:51Z</time>
      </trkpt>
      <trkpt lat="43.740841" lon="1.985354">
        <ele>254.2</ele>
        <time>2015-08-25T12:27:54Z</time>
      </trkpt>
      <trkpt lat="43.740924" lon="1.985277">
        <ele>253.5</ele>
        <time>2015-08-25T12:27:57Z</time>
      </trkpt>
      <trkpt lat="43.741003" lon="1.985185">
        <ele>252.9</ele>
        <time>2015-08-25T12:28:00Z</time>
      </trkpt>
      <trkpt lat="43.741092" lon="1.985107">
        <ele>251.9</ele>
        <time>2015-08-25T12:28:03Z</time>
      </trkpt>
      <trkpt lat="43.741187" lon="1.985031">
        <ele>252.2</ele>
        <time>2015-08-25T12:28:06Z</time>
      </trkpt>
      <trkpt lat="43.741293" lon="1.984948">
        <ele>252.0</ele>
        <time>2015-08-25T12:28:09Z</time>
      </trkpt>
      <trkpt lat="43.741386" lon="1.984841">
        <ele>252.1</ele>
        <time>2015-08-25T12:28:12Z</time>
      </trkpt>
      <trkpt lat="43.741500" lon="1.984726">
        <ele>254.4</ele>
        <time>2015-08-25T12:31:20Z</time>
      </trkpt>
      <trkpt lat="43.741624" lon="1.984708">
        <ele>253.5</ele>
        <time>2015-08-25T12:31:25Z</time>
      </trkpt>
      <trkpt lat="43.741727" lon="1.984670">
        <ele>251.2</ele>
        <time>2015-08-25T12:31:28Z</time>
      </trkpt>
      <trkpt lat="43.741834" lon="1.984609">
        <ele>249.1</ele>
        <time>2015-08-25T12:31:31Z</time>
      </trkpt>
      <trkpt lat="43.741944" lon="1.984542">
        <ele>246.9</ele>
        <time>2015-08-25T12:31:34Z</time>
      </trkpt>
      <trkpt lat="43.742067" lon="1.984476">
        <ele>245.2</ele>
        <time>2015-08-25T12:31:37Z</time>
      </trkpt>
      <trkpt lat="43.742197" lon="1.984439">
        <ele>242.9</ele>
        <time>2015-08-25T12:31:40Z</time>
      </trkpt>
      <trkpt lat="43.742312" lon="1.984430">
        <ele>241.0</ele>
        <time>2015-08-25T12:31:43Z</time>
      </trkpt>
      <trkpt lat="43.742435" lon="1.984454">
        <ele>239.1</ele>
        <time>2015-08-25T12:31:46Z</time>
      </trkpt>
      <trkpt lat="43.742565" lon="1.984459">
        <ele>237.4</ele>
        <time>2015-08-25T12:31:49Z</time>
      </trkpt>
      <trkpt lat="43.742697" lon="1.984449">
        <ele>235.1</ele>
        <time>2015-08-25T12:31:52Z</time>
      </trkpt>
      <trkpt lat="43.742792" lon="1.984439">
        <ele>233.8</ele>
        <time>2015-08-25T12:31:54Z</time>
      </trkpt>
      <trkpt lat="43.742892" lon="1.984426">
        <ele>232.8</ele>
        <time>2015-08-25T12:31:56Z</time>
      </trkpt>
      <trkpt lat="43.742985" lon="1.984413">
        <ele>231.8</ele>
        <time>2015-08-25T12:31:58Z</time>
      </trkpt>
      <trkpt lat="43.743103" lon="1.984403">
        <ele>230.1</ele>
        <time>2015-08-25T12:32:01Z</time>
      </trkpt>
      <trkpt lat="43.743210" lon="1.984409">
        <ele>228.9</ele>
        <time>2015-08-25T12:32:04Z</time>
      </trkpt>
      <trkpt lat="43.743336" lon="1.984440">
        <ele>227.0</ele>
        <time>2015-08-25T12:32:08Z</time>
      </trkpt>
      <trkpt lat="43.743430" lon="1.984435">
        <ele>225.3</ele>
        <time>2015-08-25T12:32:11Z</time>
      </trkpt>
      <trkpt lat="43.743537" lon="1.984392">
        <ele>223.2</ele>
        <time>2015-08-25T12:32:14Z</time>
      </trkpt>
      <trkpt lat="43.743629" lon="1.984352">
        <ele>220.8</ele>
        <time>2015-08-25T12:32:17Z</time>
      </trkpt>
      <trkpt lat="43.743721" lon="1.984327">
        <ele>219.7</ele>
        <time>2015-08-25T12:32:20Z</time>
      </trkpt>
      <trkpt lat="43.743824" lon="1.984321">
        <ele>218.1</ele>
        <time>2015-08-25T12:32:23Z</time>
      </trkpt>
      <trkpt lat="43.743933" lon="1.984330">
        <ele>216.8</ele>
        <time>2015-08-25T12:32:26Z</time>
      </trkpt>
      <trkpt lat="43.744053" lon="1.984345">
        <ele>215.9</ele>
        <time>2015-08-25T12:32:29Z</time>
      </trkpt>
      <trkpt lat="43.744172" lon="1.984337">
        <ele>215.5</ele>
        <time>2015-08-25T12:32:32Z</time>
      </trkpt>
      <trkpt lat="43.744273" lon="1.984286">
        <ele>215.6</ele>
        <time>2015-08-25T12:32:35Z</time>
      </trkpt>
      <trkpt lat="43.744359" lon="1.984206">
        <ele>213.6</ele>
        <time>2015-08-25T12:32:38Z</time>
      </trkpt>
      <trkpt lat="43.744447" lon="1.984171">
        <ele>212.2</ele>
        <time>2015-08-25T12:32:41Z</time>
      </trkpt>
      <trkpt lat="43.744544" lon="1.984112">
        <ele>209.4</ele>
        <time>2015-08-25T12:32:45Z</time>
      </trkpt>
      <trkpt lat="43.744628" lon="1.984034">
        <ele>206.6</ele>
        <time>2015-08-25T12:32:50Z</time>
      </trkpt>
      <trkpt lat="43.744716" lon="1.983972">
        <ele>203.9</ele>
        <time>2015-08-25T12:32:55Z</time>
      </trkpt>
      <trkpt lat="43.744817" lon="1.983960">
        <ele>201.3</ele>
        <time>2015-08-25T12:33:00Z</time>
      </trkpt>
      <trkpt lat="43.744924" lon="1.983997">
        <ele>199.8</ele>
        <time>2015-08-25T12:33:05Z</time>
      </trkpt>
      <trkpt lat="43.745002" lon="1.984078">
        <ele>197.4</ele>
        <time>2015-08-25T12:33:10Z</time>
      </trkpt>
      <trkpt lat="43.745106" lon="1.984163">
        <ele>195.2</ele>
        <time>2015-08-25T12:33:16Z</time>
      </trkpt>
      <trkpt lat="43.745234" lon="1.984202">
        <ele>192.7</ele>
        <time>2015-08-25T12:33:20Z</time>
      </trkpt>
      <trkpt lat="43.745355" lon="1.984205">
        <ele>191.2</ele>
        <time>2015-08-25T12:33:23Z</time>
      </trkpt>
      <trkpt lat="43.745440" lon="1.984240">
        <ele>193.6</ele>
        <time>2015-08-25T12:33:37Z</time>
      </trkpt>
      <trkpt lat="43.745470" lon="1.984266">
        <ele>194.3</ele>
        <time>2015-08-25T12:33:57Z</time>
      </trkpt>
      <trkpt lat="43.745563" lon="1.984248">
        <ele>194.6</ele>
        <time>2015-08-25T12:34:25Z</time>
      </trkpt>
      <trkpt lat="43.745655" lon="1.984253">
        <ele>194.4</ele>
        <time>2015-08-25T12:34:30Z</time>
      </trkpt>
      <trkpt lat="43.746046" lon="1.984159">
        <ele>191.0</ele>
        <time>2015-08-25T12:34:55Z</time>
      </trkpt>
      <trkpt lat="43.746159" lon="1.984106">
        <ele>190.2</ele>
        <time>2015-08-25T12:35:01Z</time>
      </trkpt>
      <trkpt lat="43.746276" lon="1.984025">
        <ele>188.5</ele>
        <time>2015-08-25T12:35:07Z</time>
      </trkpt>
      <trkpt lat="43.746402" lon="1.983953">
        <ele>192.2</ele>
        <time>2015-08-25T12:35:13Z</time>
      </trkpt>
      <trkpt lat="43.746518" lon="1.983934">
        <ele>194.4</ele>
        <time>2015-08-25T12:35:19Z</time>
      </trkpt>
      <trkpt lat="43.746626" lon="1.983946">
        <ele>196.4</ele>
        <time>2015-08-25T12:35:24Z</time>
      </trkpt>
      <trkpt lat="43.746739" lon="1.983959">
        <ele>199.8</ele>
        <time>2015-08-25T12:35:30Z</time>
      </trkpt>
      <trkpt lat="43.746872" lon="1.983952">
        <ele>201.0</ele>
        <time>2015-08-25T12:35:37Z</time>
      </trkpt>
      <trkpt lat="43.746970" lon="1.983940">
        <ele>201.7</ele>
        <time>2015-08-25T12:35:42Z</time>
      </trkpt>
      <trkpt lat="43.747063" lon="1.983945">
        <ele>202.9</ele>
        <time>2015-08-25T12:35:46Z</time>
      </trkpt>
      <trkpt lat="43.747180" lon="1.983946">
        <ele>203.2</ele>
        <time>2015-08-25T12:35:51Z</time>
      </trkpt>
      <trkpt lat="43.747280" lon="1.983943">
        <ele>203.2</ele>
        <time>2015-08-25T12:35:55Z</time>
      </trkpt>
      <trkpt lat="43.747387" lon="1.983933">
        <ele>205.1</ele>
        <time>2015-08-25T12:35:59Z</time>
      </trkpt>
      <trkpt lat="43.747494" lon="1.983919">
        <ele>206.4</ele>
        <time>2015-08-25T12:36:03Z</time>
      </trkpt>
      <trkpt lat="43.747599" lon="1.983911">
        <ele>206.2</ele>
        <time>2015-08-25T12:36:07Z</time>
      </trkpt>
      <trkpt lat="43.747695" lon="1.983900">
        <ele>206.0</ele>
        <time>2015-08-25T12:36:11Z</time>
      </trkpt>
      <trkpt lat="43.747788" lon="1.983878">
        <ele>205.9</ele>
        <time>2015-08-25T12:36:16Z</time>
      </trkpt>
      <trkpt lat="43.747877" lon="1.983820">
        <ele>205.3</ele>
        <time>2015-08-25T12:36:25Z</time>
      </trkpt>
      <trkpt lat="43.747994" lon="1.983844">
        <ele>205.9</ele>
        <time>2015-08-25T12:36:36Z</time>
      </trkpt>
      <trkpt lat="43.748104" lon="1.983885">
        <ele>210.8</ele>
        <time>2015-08-25T12:36:46Z</time>
      </trkpt>
      <trkpt lat="43.748222" lon="1.983943">
        <ele>214.0</ele>
        <time>2015-08-25T12:37:01Z</time>
      </trkpt>
      <trkpt lat="43.748350" lon="1.984038">
        <ele>217.5</ele>
        <time>2015-08-25T12:37:12Z</time>
      </trkpt>
      <trkpt lat="43.748478" lon="1.984075">
        <ele>218.9</ele>
        <time>2015-08-25T12:37:17Z</time>
      </trkpt>
      <trkpt lat="43.748572" lon="1.984083">
        <ele>220.1</ele>
        <time>2015-08-25T12:37:22Z</time>
      </trkpt>
      <trkpt lat="43.748668" lon="1.984045">
        <ele>220.2</ele>
        <time>2015-08-25T12:37:29Z</time>
      </trkpt>
      <trkpt lat="43.748773" lon="1.984018">
        <ele>222.6</ele>
        <time>2015-08-25T12:37:40Z</time>
      </trkpt>
      <trkpt lat="43.748891" lon="1.984028">
        <ele>223.5</ele>
        <time>2015-08-25T12:37:50Z</time>
      </trkpt>
      <trkpt lat="43.748996" lon="1.984029">
        <ele>224.8</ele>
        <time>2015-08-25T12:38:01Z</time>
      </trkpt>
      <trkpt lat="43.749078" lon="1.984066">
        <ele>225.0</ele>
        <time>2015-08-25T12:38:27Z</time>
      </trkpt>
      <trkpt lat="43.749133" lon="1.984004">
        <ele>226.5</ele>
        <time>2015-08-25T12:39:09Z</time>
      </trkpt>
      <trkpt lat="43.749145" lon="1.984034">
        <ele>226.9</ele>
        <time>2015-08-25T12:39:38Z</time>
      </trkpt>
      <trkpt lat="43.749278" lon="1.984054">
        <ele>226.9</ele>
        <time>2015-08-25T12:39:43Z</time>
      </trkpt>
      <trkpt lat="43.749379" lon="1.984071">
        <ele>226.9</ele>
        <time>2015-08-25T12:39:47Z</time>
      </trkpt>
      <trkpt lat="43.749476" lon="1.984119">
        <ele>227.6</ele>
        <time>2015-08-25T12:39:51Z</time>
      </trkpt>
      <trkpt lat="43.749541" lon="1.984226">
        <ele>227.7</ele>
        <time>2015-08-25T12:39:56Z</time>
      </trkpt>
      <trkpt lat="43.749603" lon="1.984371">
        <ele>228.4</ele>
        <time>2015-08-25T12:40:01Z</time>
      </trkpt>
      <trkpt lat="43.749645" lon="1.984533">
        <ele>228.1</ele>
        <time>2015-08-25T12:40:05Z</time>
      </trkpt>
      <trkpt lat="43.749688" lon="1.984667">
        <ele>228.0</ele>
        <time>2015-08-25T12:40:08Z</time>
      </trkpt>
      <trkpt lat="43.749723" lon="1.984812">
        <ele>226.5</ele>
        <time>2015-08-25T12:40:11Z</time>
      </trkpt>
      <trkpt lat="43.749756" lon="1.984936">
        <ele>226.3</ele>
        <time>2015-08-25T12:40:14Z</time>
      </trkpt>
      <trkpt lat="43.749869" lon="1.984992">
        <ele>225.8</ele>
        <time>2015-08-25T12:40:18Z</time>
      </trkpt>
      <trkpt lat="43.749959" lon="1.984976">
        <ele>225.1</ele>
        <time>2015-08-25T12:40:20Z</time>
      </trkpt>
      <trkpt lat="43.750055" lon="1.984943">
        <ele>224.1</ele>
        <time>2015-08-25T12:40:22Z</time>
      </trkpt>
      <trkpt lat="43.750166" lon="1.984922">
        <ele>223.1</ele>
        <time>2015-08-25T12:40:24Z</time>
      </trkpt>
      <trkpt lat="43.750288" lon="1.984903">
        <ele>222.5</ele>
        <time>2015-08-25T12:40:26Z</time>
      </trkpt>
      <trkpt lat="43.750417" lon="1.984880">
        <ele>222.1</ele>
        <time>2015-08-25T12:40:28Z</time>
      </trkpt>
      <trkpt lat="43.750551" lon="1.984863">
        <ele>221.0</ele>
        <time>2015-08-25T12:40:30Z</time>
      </trkpt>
      <trkpt lat="43.750690" lon="1.984843">
        <ele>220.1</ele>
        <time>2015-08-25T12:40:32Z</time>
      </trkpt>
      <trkpt lat="43.750834" lon="1.984829">
        <ele>219.1</ele>
        <time>2015-08-25T12:40:34Z</time>
      </trkpt>
      <trkpt lat="43.750985" lon="1.984815">
        <ele>218.3</ele>
        <time>2015-08-25T12:40:36Z</time>
      </trkpt>
      <trkpt lat="43.751126" lon="1.984830">
        <ele>217.3</ele>
        <time>2015-08-25T12:40:38Z</time>
      </trkpt>
      <trkpt lat="43.751261" lon="1.984852">
        <ele>216.5</ele>
        <time>2015-08-25T12:40:40Z</time>
      </trkpt>
      <trkpt lat="43.751392" lon="1.984867">
        <ele>215.8</ele>
        <time>2015-08-25T12:40:42Z</time>
      </trkpt>
      <trkpt lat="43.751517" lon="1.984874">
        <ele>215.1</ele>
        <time>2015-08-25T12:40:44Z</time>
      </trkpt>
      <trkpt lat="43.751641" lon="1.984872">
        <ele>214.8</ele>
        <time>2015-08-25T12:40:46Z</time>
      </trkpt>
      <trkpt lat="43.751767" lon="1.984877">
        <ele>213.8</ele>
        <time>2015-08-25T12:40:48Z</time>
      </trkpt>
      <trkpt lat="43.751894" lon="1.984883">
        <ele>213.2</ele>
        <time>2015-08-25T12:40:50Z</time>
      </trkpt>
      <trkpt lat="43.752017" lon="1.984890">
        <ele>212.7</ele>
        <time>2015-08-25T12:40:52Z</time>
      </trkpt>
      <trkpt lat="43.752141" lon="1.984897">
        <ele>212.4</ele>
        <time>2015-08-25T12:40:54Z</time>
      </trkpt>
      <trkpt lat="43.752263" lon="1.984903">
        <ele>212.2</ele>
        <time>2015-08-25T12:40:56Z</time>
      </trkpt>
      <trkpt lat="43.752382" lon="1.984907">
        <ele>212.0</ele>
        <time>2015-08-25T12:40:58Z</time>
      </trkpt>
      <trkpt lat="43.752497" lon="1.984907">
        <ele>211.8</ele>
        <time>2015-08-25T12:41:00Z</time>
      </trkpt>
      <trkpt lat="43.752610" lon="1.984904">
        <ele>211.4</ele>
        <time>2015-08-25T12:41:02Z</time>
      </trkpt>
      <trkpt lat="43.752720" lon="1.984897">
        <ele>211.1</ele>
        <time>2015-08-25T12:41:04Z</time>
      </trkpt>
      <trkpt lat="43.752824" lon="1.984889">
        <ele>211.1</ele>
        <time>2015-08-25T12:41:06Z</time>
      </trkpt>
      <trkpt lat="43.752929" lon="1.984881">
        <ele>210.9</ele>
        <time>2015-08-25T12:41:08Z</time>
      </trkpt>
      <trkpt lat="43.753025" lon="1.984866">
        <ele>210.4</ele>
        <time>2015-08-25T12:41:10Z</time>
      </trkpt>
      <trkpt lat="43.753152" lon="1.984839">
        <ele>210.1</ele>
        <time>2015-08-25T12:41:13Z</time>
      </trkpt>
      <trkpt lat="43.753270" lon="1.984815">
        <ele>209.7</ele>
        <time>2015-08-25T12:41:16Z</time>
      </trkpt>
      <trkpt lat="43.753387" lon="1.984780">
        <ele>209.3</ele>
        <time>2015-08-25T12:41:19Z</time>
      </trkpt>
      <trkpt lat="43.753500" lon="1.984747">
        <ele>209.0</ele>
        <time>2015-08-25T12:41:22Z</time>
      </trkpt>
      <trkpt lat="43.753609" lon="1.984710">
        <ele>208.4</ele>
        <time>2015-08-25T12:41:25Z</time>
      </trkpt>
      <trkpt lat="43.753716" lon="1.984689">
        <ele>208.0</ele>
        <time>2015-08-25T12:41:28Z</time>
      </trkpt>
      <trkpt lat="43.753824" lon="1.984656">
        <ele>208.5</ele>
        <time>2015-08-25T12:41:31Z</time>
      </trkpt>
      <trkpt lat="43.753931" lon="1.984614">
        <ele>208.9</ele>
        <time>2015-08-25T12:41:34Z</time>
      </trkpt>
      <trkpt lat="43.754036" lon="1.984589">
        <ele>209.1</ele>
        <time>2015-08-25T12:41:37Z</time>
      </trkpt>
      <trkpt lat="43.754141" lon="1.984558">
        <ele>209.3</ele>
        <time>2015-08-25T12:41:40Z</time>
      </trkpt>
      <trkpt lat="43.754243" lon="1.984524">
        <ele>210.0</ele>
        <time>2015-08-25T12:41:43Z</time>
      </trkpt>
      <trkpt lat="43.754363" lon="1.984479">
        <ele>210.5</ele>
        <time>2015-08-25T12:41:46Z</time>
      </trkpt>
      <trkpt lat="43.754489" lon="1.984444">
        <ele>210.5</ele>
        <time>2015-08-25T12:41:49Z</time>
      </trkpt>
      <trkpt lat="43.754609" lon="1.984406">
        <ele>210.4</ele>
        <time>2015-08-25T12:41:52Z</time>
      </trkpt>
      <trkpt lat="43.754716" lon="1.984389">
        <ele>210.9</ele>
        <time>2015-08-25T12:41:55Z</time>
      </trkpt>
      <trkpt lat="43.754813" lon="1.984363">
        <ele>210.9</ele>
        <time>2015-08-25T12:41:58Z</time>
      </trkpt>
      <trkpt lat="43.754901" lon="1.984339">
        <ele>210.3</ele>
        <time>2015-08-25T12:42:01Z</time>
      </trkpt>
      <trkpt lat="43.754987" lon="1.984293">
        <ele>209.7</ele>
        <time>2015-08-25T12:42:05Z</time>
      </trkpt>
      <trkpt lat="43.755030" lon="1.984213">
        <ele>209.8</ele>
        <time>2015-08-25T12:42:14Z</time>
      </trkpt>
      <trkpt lat="43.754918" lon="1.984150">
        <ele>209.0</ele>
        <time>2015-08-25T12:42:19Z</time>
      </trkpt>
      <trkpt lat="43.754828" lon="1.984092">
        <ele>208.6</ele>
        <time>2015-08-25T12:42:23Z</time>
      </trkpt>
      <trkpt lat="43.754738" lon="1.984026">
        <ele>208.2</ele>
        <time>2015-08-25T12:42:27Z</time>
      </trkpt>
      <trkpt lat="43.754639" lon="1.983973">
        <ele>207.6</ele>
        <time>2015-08-25T12:42:31Z</time>
      </trkpt>
      <trkpt lat="43.754535" lon="1.983909">
        <ele>206.8</ele>
        <time>2015-08-25T12:42:35Z</time>
      </trkpt>
      <trkpt lat="43.754448" lon="1.983867">
        <ele>206.0</ele>
        <time>2015-08-25T12:42:38Z</time>
      </trkpt>
      <trkpt lat="43.754329" lon="1.983826">
        <ele>205.7</ele>
        <time>2015-08-25T12:42:42Z</time>
      </trkpt>
      <trkpt lat="43.754210" lon="1.983794">
        <ele>204.8</ele>
        <time>2015-08-25T12:42:46Z</time>
      </trkpt>
      <trkpt lat="43.754111" lon="1.983764">
        <ele>204.5</ele>
        <time>2015-08-25T12:42:49Z</time>
      </trkpt>
      <trkpt lat="43.753996" lon="1.983720">
        <ele>204.6</ele>
        <time>2015-08-25T12:42:52Z</time>
      </trkpt>
      <trkpt lat="43.753875" lon="1.983677">
        <ele>205.1</ele>
        <time>2015-08-25T12:42:55Z</time>
      </trkpt>
      <trkpt lat="43.753749" lon="1.983633">
        <ele>205.3</ele>
        <time>2015-08-25T12:42:58Z</time>
      </trkpt>
      <trkpt lat="43.753630" lon="1.983569">
        <ele>206.5</ele>
        <time>2015-08-25T12:43:01Z</time>
      </trkpt>
      <trkpt lat="43.753528" lon="1.983477">
        <ele>207.7</ele>
        <time>2015-08-25T12:43:04Z</time>
      </trkpt>
      <trkpt lat="43.753446" lon="1.983374">
        <ele>208.4</ele>
        <time>2015-08-25T12:43:07Z</time>
      </trkpt>
      <trkpt lat="43.753398" lon="1.983264">
        <ele>209.1</ele>
        <time>2015-08-25T12:43:11Z</time>
      </trkpt>
      <trkpt lat="43.753363" lon="1.983182">
        <ele>207.0</ele>
        <time>2015-08-25T12:43:42Z</time>
      </trkpt>
      <trkpt lat="43.753279" lon="1.983075">
        <ele>206.8</ele>
        <time>2015-08-25T12:43:46Z</time>
      </trkpt>
      <trkpt lat="43.753177" lon="1.982953">
        <ele>206.1</ele>
        <time>2015-08-25T12:43:50Z</time>
      </trkpt>
      <trkpt lat="43.753116" lon="1.982839">
        <ele>205.8</ele>
        <time>2015-08-25T12:43:53Z</time>
      </trkpt>
      <trkpt lat="43.753048" lon="1.982730">
        <ele>205.3</ele>
        <time>2015-08-25T12:43:56Z</time>
      </trkpt>
      <trkpt lat="43.752975" lon="1.982618">
        <ele>205.2</ele>
        <time>2015-08-25T12:43:59Z</time>
      </trkpt>
      <trkpt lat="43.752908" lon="1.982511">
        <ele>205.5</ele>
        <time>2015-08-25T12:44:02Z</time>
      </trkpt>
      <trkpt lat="43.752840" lon="1.982400">
        <ele>205.9</ele>
        <time>2015-08-25T12:44:05Z</time>
      </trkpt>
      <trkpt lat="43.752774" lon="1.982280">
        <ele>206.1</ele>
        <time>2015-08-25T12:44:08Z</time>
      </trkpt>
      <trkpt lat="43.752710" lon="1.982172">
        <ele>206.5</ele>
        <time>2015-08-25T12:44:11Z</time>
      </trkpt>
      <trkpt lat="43.752656" lon="1.982063">
        <ele>206.3</ele>
        <time>2015-08-25T12:44:15Z</time>
      </trkpt>
      <trkpt lat="43.752641" lon="1.981962">
        <ele>206.0</ele>
        <time>2015-08-25T12:44:25Z</time>
      </trkpt>
      <trkpt lat="43.752605" lon="1.981863">
        <ele>206.5</ele>
        <time>2015-08-25T12:45:01Z</time>
      </trkpt>
      <trkpt lat="43.752543" lon="1.981714">
        <ele>206.5</ele>
        <time>2015-08-25T12:45:04Z</time>
      </trkpt>
      <trkpt lat="43.752491" lon="1.981576">
        <ele>206.3</ele>
        <time>2015-08-25T12:45:07Z</time>
      </trkpt>
      <trkpt lat="43.752429" lon="1.981471">
        <ele>206.0</ele>
        <time>2015-08-25T12:45:10Z</time>
      </trkpt>
      <trkpt lat="43.752337" lon="1.981406">
        <ele>205.0</ele>
        <time>2015-08-25T12:45:13Z</time>
      </trkpt>
      <trkpt lat="43.752244" lon="1.981386">
        <ele>203.8</ele>
        <time>2015-08-25T12:45:16Z</time>
      </trkpt>
      <trkpt lat="43.752113" lon="1.981387">
        <ele>201.2</ele>
        <time>2015-08-25T12:45:20Z</time>
      </trkpt>
      <trkpt lat="43.752007" lon="1.981398">
        <ele>198.4</ele>
        <time>2015-08-25T12:45:23Z</time>
      </trkpt>
      <trkpt lat="43.751901" lon="1.981414">
        <ele>195.2</ele>
        <time>2015-08-25T12:45:26Z</time>
      </trkpt>
      <trkpt lat="43.751795" lon="1.981422">
        <ele>192.3</ele>
        <time>2015-08-25T12:45:29Z</time>
      </trkpt>
      <trkpt lat="43.751682" lon="1.981454">
        <ele>188.9</ele>
        <time>2015-08-25T12:45:32Z</time>
      </trkpt>
      <trkpt lat="43.751583" lon="1.981477">
        <ele>186.5</ele>
        <time>2015-08-25T12:45:35Z</time>
      </trkpt>
      <trkpt lat="43.751475" lon="1.981526">
        <ele>183.3</ele>
        <time>2015-08-25T12:45:38Z</time>
      </trkpt>
      <trkpt lat="43.751343" lon="1.981589">
        <ele>180.2</ele>
        <time>2015-08-25T12:45:42Z</time>
      </trkpt>
      <trkpt lat="43.751209" lon="1.981592">
        <ele>177.2</ele>
        <time>2015-08-25T12:45:45Z</time>
      </trkpt>
      <trkpt lat="43.751097" lon="1.981546">
        <ele>174.6</ele>
        <time>2015-08-25T12:45:48Z</time>
      </trkpt>
      <trkpt lat="43.750971" lon="1.981440">
        <ele>174.9</ele>
        <time>2015-08-25T12:45:51Z</time>
      </trkpt>
      <trkpt lat="43.750881" lon="1.981363">
        <ele>175.6</ele>
        <time>2015-08-25T12:45:53Z</time>
      </trkpt>
      <trkpt lat="43.750793" lon="1.981280">
        <ele>177.9</ele>
        <time>2015-08-25T12:45:55Z</time>
      </trkpt>
      <trkpt lat="43.750724" lon="1.981179">
        <ele>179.6</ele>
        <time>2015-08-25T12:45:57Z</time>
      </trkpt>
      <trkpt lat="43.750671" lon="1.981076">
        <ele>180.0</ele>
        <time>2015-08-25T12:45:59Z</time>
      </trkpt>
      <trkpt lat="43.750628" lon="1.980937">
        <ele>180.5</ele>
        <time>2015-08-25T12:46:02Z</time>
      </trkpt>
      <trkpt lat="43.750598" lon="1.980816">
        <ele>179.8</ele>
        <time>2015-08-25T12:46:05Z</time>
      </trkpt>
      <trkpt lat="43.750576" lon="1.980674">
        <ele>179.7</ele>
        <time>2015-08-25T12:46:10Z</time>
      </trkpt>
      <trkpt lat="43.750578" lon="1.980521">
        <ele>183.4</ele>
        <time>2015-08-25T12:46:15Z</time>
      </trkpt>
      <trkpt lat="43.750547" lon="1.980363">
        <ele>185.6</ele>
        <time>2015-08-25T12:46:20Z</time>
      </trkpt>
      <trkpt lat="43.750511" lon="1.980235">
        <ele>187.6</ele>
        <time>2015-08-25T12:46:25Z</time>
      </trkpt>
      <trkpt lat="43.750492" lon="1.980108">
        <ele>189.2</ele>
        <time>2015-08-25T12:46:30Z</time>
      </trkpt>
      <trkpt lat="43.750471" lon="1.979984">
        <ele>191.1</ele>
        <time>2015-08-25T12:46:36Z</time>
      </trkpt>
      <trkpt lat="43.750457" lon="1.979839">
        <ele>194.0</ele>
        <time>2015-08-25T12:46:44Z</time>
      </trkpt>
      <trkpt lat="43.750457" lon="1.979676">
        <ele>196.6</ele>
        <time>2015-08-25T12:46:51Z</time>
      </trkpt>
      <trkpt lat="43.750459" lon="1.979516">
        <ele>198.5</ele>
        <time>2015-08-25T12:47:01Z</time>
      </trkpt>
      <trkpt lat="43.750449" lon="1.979353">
        <ele>200.9</ele>
        <time>2015-08-25T12:47:10Z</time>
      </trkpt>
      <trkpt lat="43.750431" lon="1.979195">
        <ele>201.8</ele>
        <time>2015-08-25T12:47:24Z</time>
      </trkpt>
      <trkpt lat="43.750443" lon="1.979033">
        <ele>201.9</ele>
        <time>2015-08-25T12:47:39Z</time>
      </trkpt>
      <trkpt lat="43.750414" lon="1.978813">
        <ele>203.1</ele>
        <time>2015-08-25T12:47:53Z</time>
      </trkpt>
      <trkpt lat="43.750426" lon="1.978642">
        <ele>205.2</ele>
        <time>2015-08-25T12:48:12Z</time>
      </trkpt>
      <trkpt lat="43.750405" lon="1.978471">
        <ele>206.4</ele>
        <time>2015-08-25T12:48:30Z</time>
      </trkpt>
      <trkpt lat="43.750379" lon="1.978291">
        <ele>208.6</ele>
        <time>2015-08-25T12:48:47Z</time>
      </trkpt>
      <trkpt lat="43.750332" lon="1.978106">
        <ele>209.5</ele>
        <time>2015-08-25T12:48:55Z</time>
      </trkpt>
      <trkpt lat="43.750298" lon="1.977968">
        <ele>209.4</ele>
        <time>2015-08-25T12:49:00Z</time>
      </trkpt>
      <trkpt lat="43.750275" lon="1.977842">
        <ele>209.7</ele>
        <time>2015-08-25T12:49:06Z</time>
      </trkpt>
      <trkpt lat="43.750259" lon="1.977699">
        <ele>210.1</ele>
        <time>2015-08-25T12:49:12Z</time>
      </trkpt>
      <trkpt lat="43.750249" lon="1.977539">
        <ele>210.4</ele>
        <time>2015-08-25T12:49:19Z</time>
      </trkpt>
      <trkpt lat="43.750227" lon="1.977365">
        <ele>210.6</ele>
        <time>2015-08-25T12:49:26Z</time>
      </trkpt>
      <trkpt lat="43.750189" lon="1.977230">
        <ele>210.2</ele>
        <time>2015-08-25T12:49:34Z</time>
      </trkpt>
      <trkpt lat="43.750142" lon="1.977072">
        <ele>209.9</ele>
        <time>2015-08-25T12:49:59Z</time>
      </trkpt>
      <trkpt lat="43.750081" lon="1.976897">
        <ele>209.8</ele>
        <time>2015-08-25T12:50:05Z</time>
      </trkpt>
      <trkpt lat="43.750019" lon="1.976762">
        <ele>209.4</ele>
        <time>2015-08-25T12:50:08Z</time>
      </trkpt>
      <trkpt lat="43.749933" lon="1.976617">
        <ele>209.4</ele>
        <time>2015-08-25T12:50:11Z</time>
      </trkpt>
      <trkpt lat="43.749857" lon="1.976498">
        <ele>209.2</ele>
        <time>2015-08-25T12:50:13Z</time>
      </trkpt>
      <trkpt lat="43.749784" lon="1.976363">
        <ele>209.0</ele>
        <time>2015-08-25T12:50:15Z</time>
      </trkpt>
      <trkpt lat="43.749730" lon="1.976228">
        <ele>209.0</ele>
        <time>2015-08-25T12:50:17Z</time>
      </trkpt>
      <trkpt lat="43.749675" lon="1.976088">
        <ele>208.9</ele>
        <time>2015-08-25T12:50:19Z</time>
      </trkpt>
      <trkpt lat="43.749626" lon="1.975946">
        <ele>208.6</ele>
        <time>2015-08-25T12:50:21Z</time>
      </trkpt>
      <trkpt lat="43.749568" lon="1.975817">
        <ele>207.8</ele>
        <time>2015-08-25T12:50:23Z</time>
      </trkpt>
      <trkpt lat="43.749511" lon="1.975693">
        <ele>208.1</ele>
        <time>2015-08-25T12:50:25Z</time>
      </trkpt>
      <trkpt lat="43.749459" lon="1.975570">
        <ele>208.2</ele>
        <time>2015-08-25T12:50:27Z</time>
      </trkpt>
      <trkpt lat="43.749402" lon="1.975445">
        <ele>208.4</ele>
        <time>2015-08-25T12:50:29Z</time>
      </trkpt>
      <trkpt lat="43.749343" lon="1.975316">
        <ele>208.9</ele>
        <time>2015-08-25T12:50:31Z</time>
      </trkpt>
      <trkpt lat="43.749285" lon="1.975186">
        <ele>209.7</ele>
        <time>2015-08-25T12:50:33Z</time>
      </trkpt>
      <trkpt lat="43.749231" lon="1.975061">
        <ele>210.6</ele>
        <time>2015-08-25T12:50:35Z</time>
      </trkpt>
      <trkpt lat="43.749175" lon="1.974940">
        <ele>210.9</ele>
        <time>2015-08-25T12:50:37Z</time>
      </trkpt>
      <trkpt lat="43.749120" lon="1.974822">
        <ele>211.3</ele>
        <time>2015-08-25T12:50:39Z</time>
      </trkpt>
      <trkpt lat="43.749063" lon="1.974711">
        <ele>211.2</ele>
        <time>2015-08-25T12:50:41Z</time>
      </trkpt>
      <trkpt lat="43.749005" lon="1.974606">
        <ele>210.7</ele>
        <time>2015-08-25T12:50:43Z</time>
      </trkpt>
      <trkpt lat="43.748927" lon="1.974440">
        <ele>211.0</ele>
        <time>2015-08-25T12:50:46Z</time>
      </trkpt>
      <trkpt lat="43.748846" lon="1.974282">
        <ele>211.7</ele>
        <time>2015-08-25T12:50:49Z</time>
      </trkpt>
      <trkpt lat="43.748791" lon="1.974178">
        <ele>212.2</ele>
        <time>2015-08-25T12:50:51Z</time>
      </trkpt>
      <trkpt lat="43.748710" lon="1.974028">
        <ele>212.3</ele>
        <time>2015-08-25T12:50:54Z</time>
      </trkpt>
      <trkpt lat="43.748630" lon="1.973879">
        <ele>212.7</ele>
        <time>2015-08-25T12:50:57Z</time>
      </trkpt>
      <trkpt lat="43.748550" lon="1.973727">
        <ele>213.2</ele>
        <time>2015-08-25T12:51:00Z</time>
      </trkpt>
      <trkpt lat="43.748474" lon="1.973579">
        <ele>213.7</ele>
        <time>2015-08-25T12:51:03Z</time>
      </trkpt>
      <trkpt lat="43.748406" lon="1.973440">
        <ele>214.4</ele>
        <time>2015-08-25T12:51:06Z</time>
      </trkpt>
      <trkpt lat="43.748343" lon="1.973321">
        <ele>214.2</ele>
        <time>2015-08-25T12:51:09Z</time>
      </trkpt>
      <trkpt lat="43.748338" lon="1.973198">
        <ele>213.9</ele>
        <time>2015-08-25T12:51:13Z</time>
      </trkpt>
      <trkpt lat="43.748445" lon="1.973123">
        <ele>214.8</ele>
        <time>2015-08-25T12:51:17Z</time>
      </trkpt>
      <trkpt lat="43.748529" lon="1.973051">
        <ele>214.7</ele>
        <time>2015-08-25T12:51:20Z</time>
      </trkpt>
      <trkpt lat="43.748623" lon="1.972977">
        <ele>214.3</ele>
        <time>2015-08-25T12:51:23Z</time>
      </trkpt>
      <trkpt lat="43.748726" lon="1.972903">
        <ele>213.9</ele>
        <time>2015-08-25T12:51:26Z</time>
      </trkpt>
      <trkpt lat="43.748833" lon="1.972820">
        <ele>213.4</ele>
        <time>2015-08-25T12:51:29Z</time>
      </trkpt>
      <trkpt lat="43.748945" lon="1.972729">
        <ele>212.7</ele>
        <time>2015-08-25T12:51:32Z</time>
      </trkpt>
      <trkpt lat="43.749026" lon="1.972666">
        <ele>212.2</ele>
        <time>2015-08-25T12:51:34Z</time>
      </trkpt>
      <trkpt lat="43.749107" lon="1.972597">
        <ele>211.8</ele>
        <time>2015-08-25T12:51:36Z</time>
      </trkpt>
      <trkpt lat="43.749195" lon="1.972531">
        <ele>211.4</ele>
        <time>2015-08-25T12:51:38Z</time>
      </trkpt>
      <trkpt lat="43.749286" lon="1.972459">
        <ele>210.7</ele>
        <time>2015-08-25T12:51:40Z</time>
      </trkpt>
      <trkpt lat="43.749382" lon="1.972382">
        <ele>210.3</ele>
        <time>2015-08-25T12:51:42Z</time>
      </trkpt>
      <trkpt lat="43.749468" lon="1.972314">
        <ele>209.8</ele>
        <time>2015-08-25T12:51:44Z</time>
      </trkpt>
      <trkpt lat="43.749550" lon="1.972264">
        <ele>209.1</ele>
        <time>2015-08-25T12:51:46Z</time>
      </trkpt>
      <trkpt lat="43.749631" lon="1.972207">
        <ele>208.5</ele>
        <time>2015-08-25T12:51:48Z</time>
      </trkpt>
      <trkpt lat="43.749712" lon="1.972139">
        <ele>208.1</ele>
        <time>2015-08-25T12:51:50Z</time>
      </trkpt>
      <trkpt lat="43.749802" lon="1.972070">
        <ele>207.1</ele>
        <time>2015-08-25T12:51:52Z</time>
      </trkpt>
      <trkpt lat="43.749883" lon="1.971995">
        <ele>206.3</ele>
        <time>2015-08-25T12:51:54Z</time>
      </trkpt>
      <trkpt lat="43.749961" lon="1.971925">
        <ele>205.6</ele>
        <time>2015-08-25T12:51:56Z</time>
      </trkpt>
      <trkpt lat="43.750050" lon="1.971805">
        <ele>204.4</ele>
        <time>2015-08-25T12:51:59Z</time>
      </trkpt>
      <trkpt lat="43.750111" lon="1.971711">
        <ele>202.7</ele>
        <time>2015-08-25T12:52:04Z</time>
      </trkpt>
      <trkpt lat="43.750224" lon="1.971635">
        <ele>203.4</ele>
        <time>2015-08-25T12:52:24Z</time>
      </trkpt>
      <trkpt lat="43.750310" lon="1.971542">
        <ele>203.2</ele>
        <time>2015-08-25T12:52:28Z</time>
      </trkpt>
      <trkpt lat="43.750391" lon="1.971445">
        <ele>203.0</ele>
        <time>2015-08-25T12:52:33Z</time>
      </trkpt>
      <trkpt lat="43.750476" lon="1.971362">
        <ele>202.3</ele>
        <time>2015-08-25T12:52:39Z</time>
      </trkpt>
      <trkpt lat="43.750565" lon="1.971312">
        <ele>201.8</ele>
        <time>2015-08-25T12:52:43Z</time>
      </trkpt>
      <trkpt lat="43.750669" lon="1.971316">
        <ele>200.5</ele>
        <time>2015-08-25T12:52:46Z</time>
      </trkpt>
      <trkpt lat="43.750768" lon="1.971335">
        <ele>200.4</ele>
        <time>2015-08-25T12:52:48Z</time>
      </trkpt>
      <trkpt lat="43.750856" lon="1.971381">
        <ele>200.5</ele>
        <time>2015-08-25T12:52:50Z</time>
      </trkpt>
      <trkpt lat="43.750962" lon="1.971432">
        <ele>201.8</ele>
        <time>2015-08-25T12:52:54Z</time>
      </trkpt>
      <trkpt lat="43.751069" lon="1.971388">
        <ele>202.3</ele>
        <time>2015-08-25T12:52:58Z</time>
      </trkpt>
      <trkpt lat="43.751177" lon="1.971340">
        <ele>203.0</ele>
        <time>2015-08-25T12:53:02Z</time>
      </trkpt>
      <trkpt lat="43.751291" lon="1.971307">
        <ele>203.6</ele>
        <time>2015-08-25T12:53:06Z</time>
      </trkpt>
      <trkpt lat="43.751404" lon="1.971270">
        <ele>203.5</ele>
        <time>2015-08-25T12:53:10Z</time>
      </trkpt>
      <trkpt lat="43.751501" lon="1.971224">
        <ele>202.9</ele>
        <time>2015-08-25T12:53:14Z</time>
      </trkpt>
      <trkpt lat="43.751610" lon="1.971182">
        <ele>204.1</ele>
        <time>2015-08-25T12:53:19Z</time>
      </trkpt>
      <trkpt lat="43.751693" lon="1.971122">
        <ele>204.2</ele>
        <time>2015-08-25T12:53:24Z</time>
      </trkpt>
      <trkpt lat="43.751778" lon="1.971072">
        <ele>203.9</ele>
        <time>2015-08-25T12:53:28Z</time>
      </trkpt>
      <trkpt lat="43.751867" lon="1.970987">
        <ele>203.5</ele>
        <time>2015-08-25T12:53:34Z</time>
      </trkpt>
      <trkpt lat="43.751950" lon="1.970918">
        <ele>202.4</ele>
        <time>2015-08-25T12:53:40Z</time>
      </trkpt>
      <trkpt lat="43.752022" lon="1.970820">
        <ele>200.4</ele>
        <time>2015-08-25T12:53:50Z</time>
      </trkpt>
      <trkpt lat="43.752069" lon="1.970732">
        <ele>199.3</ele>
        <time>2015-08-25T12:54:46Z</time>
      </trkpt>
      <trkpt lat="43.752151" lon="1.970655">
        <ele>199.1</ele>
        <time>2015-08-25T12:54:50Z</time>
      </trkpt>
      <trkpt lat="43.752241" lon="1.970672">
        <ele>198.4</ele>
        <time>2015-08-25T12:54:56Z</time>
      </trkpt>
      <trkpt lat="43.752353" lon="1.970754">
        <ele>197.4</ele>
        <time>2015-08-25T12:55:01Z</time>
      </trkpt>
      <trkpt lat="43.752436" lon="1.970854">
        <ele>197.0</ele>
        <time>2015-08-25T12:55:05Z</time>
      </trkpt>
      <trkpt lat="43.752488" lon="1.970977">
        <ele>195.9</ele>
        <time>2015-08-25T12:55:09Z</time>
      </trkpt>
      <trkpt lat="43.752577" lon="1.971126">
        <ele>194.4</ele>
        <time>2015-08-25T12:55:14Z</time>
      </trkpt>
      <trkpt lat="43.752630" lon="1.971267">
        <ele>194.1</ele>
        <time>2015-08-25T12:55:19Z</time>
      </trkpt>
      <trkpt lat="43.752613" lon="1.971395">
        <ele>193.6</ele>
        <time>2015-08-25T12:55:23Z</time>
      </trkpt>
      <trkpt lat="43.752642" lon="1.971464">
        <ele>191.3</ele>
        <time>2015-08-25T12:55:52Z</time>
      </trkpt>
      <trkpt lat="43.752743" lon="1.971481">
        <ele>187.4</ele>
        <time>2015-08-25T12:57:49Z</time>
      </trkpt>
      <trkpt lat="43.752842" lon="1.971355">
        <ele>186.5</ele>
        <time>2015-08-25T12:57:53Z</time>
      </trkpt>
      <trkpt lat="43.752907" lon="1.971248">
        <ele>185.0</ele>
        <time>2015-08-25T12:57:56Z</time>
      </trkpt>
      <trkpt lat="43.752977" lon="1.971085">
        <ele>184.2</ele>
        <time>2015-08-25T12:57:59Z</time>
      </trkpt>
      <trkpt lat="43.753001" lon="1.970912">
        <ele>183.3</ele>
        <time>2015-08-25T12:58:03Z</time>
      </trkpt>
      <trkpt lat="43.753038" lon="1.970733">
        <ele>182.0</ele>
        <time>2015-08-25T12:58:09Z</time>
      </trkpt>
      <trkpt lat="43.753095" lon="1.970587">
        <ele>180.7</ele>
        <time>2015-08-25T12:58:13Z</time>
      </trkpt>
      <trkpt lat="43.753222" lon="1.970278">
        <ele>177.9</ele>
        <time>2015-08-25T12:58:29Z</time>
      </trkpt>
      <trkpt lat="43.753311" lon="1.970142">
        <ele>176.5</ele>
        <time>2015-08-25T12:58:52Z</time>
      </trkpt>
      <trkpt lat="43.753272" lon="1.969961">
        <ele>176.7</ele>
        <time>2015-08-25T12:59:04Z</time>
      </trkpt>
      <trkpt lat="43.753242" lon="1.969806">
        <ele>177.4</ele>
        <time>2015-08-25T12:59:12Z</time>
      </trkpt>
      <trkpt lat="43.753300" lon="1.969675">
        <ele>178.7</ele>
        <time>2015-08-25T12:59:25Z</time>
      </trkpt>
      <trkpt lat="43.753397" lon="1.969687">
        <ele>179.0</ele>
        <time>2015-08-25T12:59:32Z</time>
      </trkpt>
      <trkpt lat="43.753511" lon="1.969686">
        <ele>179.6</ele>
        <time>2015-08-25T12:59:40Z</time>
      </trkpt>
      <trkpt lat="43.753668" lon="1.969586">
        <ele>180.9</ele>
        <time>2015-08-25T12:59:47Z</time>
      </trkpt>
      <trkpt lat="43.753786" lon="1.969474">
        <ele>181.4</ele>
        <time>2015-08-25T12:59:53Z</time>
      </trkpt>
      <trkpt lat="43.753884" lon="1.969345">
        <ele>181.7</ele>
        <time>2015-08-25T13:00:02Z</time>
      </trkpt>
      <trkpt lat="43.754006" lon="1.969266">
        <ele>182.8</ele>
        <time>2015-08-25T13:00:10Z</time>
      </trkpt>
      <trkpt lat="43.754088" lon="1.969217">
        <ele>182.0</ele>
        <time>2015-08-25T13:00:32Z</time>
      </trkpt>
      <trkpt lat="43.754161" lon="1.969240">
        <ele>181.8</ele>
        <time>2015-08-25T13:00:58Z</time>
      </trkpt>
      <trkpt lat="43.754190" lon="1.969175">
        <ele>182.6</ele>
        <time>2015-08-25T13:01:20Z</time>
      </trkpt>
      <trkpt lat="43.754275" lon="1.969173">
        <ele>181.6</ele>
        <time>2015-08-25T13:01:38Z</time>
      </trkpt>
      <trkpt lat="43.754389" lon="1.969159">
        <ele>180.6</ele>
        <time>2015-08-25T13:01:46Z</time>
      </trkpt>
      <trkpt lat="43.754486" lon="1.969142">
        <ele>180.1</ele>
        <time>2015-08-25T13:01:51Z</time>
      </trkpt>
      <trkpt lat="43.754581" lon="1.969115">
        <ele>179.3</ele>
        <time>2015-08-25T13:01:55Z</time>
      </trkpt>
      <trkpt lat="43.754704" lon="1.969070">
        <ele>179.5</ele>
        <time>2015-08-25T13:01:59Z</time>
      </trkpt>
      <trkpt lat="43.754821" lon="1.969019">
        <ele>178.6</ele>
        <time>2015-08-25T13:02:02Z</time>
      </trkpt>
      <trkpt lat="43.754917" lon="1.968963">
        <ele>177.8</ele>
        <time>2015-08-25T13:02:04Z</time>
      </trkpt>
      <trkpt lat="43.755010" lon="1.968901">
        <ele>178.0</ele>
        <time>2015-08-25T13:02:06Z</time>
      </trkpt>
      <trkpt lat="43.755104" lon="1.968810">
        <ele>178.4</ele>
        <time>2015-08-25T13:02:09Z</time>
      </trkpt>
      <trkpt lat="43.755209" lon="1.968728">
        <ele>177.6</ele>
        <time>2015-08-25T13:02:13Z</time>
      </trkpt>
      <trkpt lat="43.755299" lon="1.968654">
        <ele>176.3</ele>
        <time>2015-08-25T13:02:16Z</time>
      </trkpt>
      <trkpt lat="43.755411" lon="1.968571">
        <ele>175.9</ele>
        <time>2015-08-25T13:02:20Z</time>
      </trkpt>
      <trkpt lat="43.755514" lon="1.968504">
        <ele>176.4</ele>
        <time>2015-08-25T13:02:24Z</time>
      </trkpt>
      <trkpt lat="43.755601" lon="1.968450">
        <ele>176.2</ele>
        <time>2015-08-25T13:02:28Z</time>
      </trkpt>
      <trkpt lat="43.755694" lon="1.968399">
        <ele>176.5</ele>
        <time>2015-08-25T13:02:32Z</time>
      </trkpt>
      <trkpt lat="43.755789" lon="1.968352">
        <ele>177.2</ele>
        <time>2015-08-25T13:02:36Z</time>
      </trkpt>
      <trkpt lat="43.755891" lon="1.968316">
        <ele>177.7</ele>
        <time>2015-08-25T13:02:40Z</time>
      </trkpt>
      <trkpt lat="43.755961" lon="1.968299">
        <ele>177.1</ele>
        <time>2015-08-25T13:02:48Z</time>
      </trkpt>
      <trkpt lat="43.755980" lon="1.968275">
        <ele>171.3</ele>
        <time>2015-08-25T13:03:48Z</time>
      </trkpt>
      <trkpt lat="43.756076" lon="1.968257">
        <ele>171.5</ele>
        <time>2015-08-25T13:04:00Z</time>
      </trkpt>
      <trkpt lat="43.756197" lon="1.968232">
        <ele>171.2</ele>
        <time>2015-08-25T13:04:04Z</time>
      </trkpt>
      <trkpt lat="43.756321" lon="1.968221">
        <ele>170.4</ele>
        <time>2015-08-25T13:04:07Z</time>
      </trkpt>
      <trkpt lat="43.756452" lon="1.968241">
        <ele>168.9</ele>
        <time>2015-08-25T13:04:10Z</time>
      </trkpt>
      <trkpt lat="43.756592" lon="1.968276">
        <ele>167.7</ele>
        <time>2015-08-25T13:04:13Z</time>
      </trkpt>
      <trkpt lat="43.756691" lon="1.968270">
        <ele>167.1</ele>
        <time>2015-08-25T13:04:15Z</time>
      </trkpt>
      <trkpt lat="43.756810" lon="1.968247">
        <ele>165.9</ele>
        <time>2015-08-25T13:04:18Z</time>
      </trkpt>
      <trkpt lat="43.756911" lon="1.968249">
        <ele>165.0</ele>
        <time>2015-08-25T13:04:21Z</time>
      </trkpt>
      <trkpt lat="43.757029" lon="1.968277">
        <ele>164.4</ele>
        <time>2015-08-25T13:04:24Z</time>
      </trkpt>
      <trkpt lat="43.757160" lon="1.968301">
        <ele>164.9</ele>
        <time>2015-08-25T13:04:27Z</time>
      </trkpt>
      <trkpt lat="43.757286" lon="1.968316">
        <ele>167.2</ele>
        <time>2015-08-25T13:04:30Z</time>
      </trkpt>
      <trkpt lat="43.757385" lon="1.968325">
        <ele>168.3</ele>
        <time>2015-08-25T13:04:33Z</time>
      </trkpt>
      <trkpt lat="43.757480" lon="1.968325">
        <ele>169.0</ele>
        <time>2015-08-25T13:04:36Z</time>
      </trkpt>
      <trkpt lat="43.757577" lon="1.968326">
        <ele>169.3</ele>
        <time>2015-08-25T13:04:39Z</time>
      </trkpt>
      <trkpt lat="43.757677" lon="1.968322">
        <ele>169.8</ele>
        <time>2015-08-25T13:04:42Z</time>
      </trkpt>
      <trkpt lat="43.757789" lon="1.968291">
        <ele>169.2</ele>
        <time>2015-08-25T13:04:46Z</time>
      </trkpt>
      <trkpt lat="43.757898" lon="1.968286">
        <ele>168.1</ele>
        <time>2015-08-25T13:04:50Z</time>
      </trkpt>
      <trkpt lat="43.758027" lon="1.968294">
        <ele>168.4</ele>
        <time>2015-08-25T13:04:53Z</time>
      </trkpt>
      <trkpt lat="43.758148" lon="1.968311">
        <ele>169.2</ele>
        <time>2015-08-25T13:04:56Z</time>
      </trkpt>
      <trkpt lat="43.758244" lon="1.968359">
        <ele>169.1</ele>
        <time>2015-08-25T13:05:01Z</time>
      </trkpt>
      <trkpt lat="43.758245" lon="1.968457">
        <ele>168.3</ele>
        <time>2015-08-25T13:05:25Z</time>
      </trkpt>
      <trkpt lat="43.758249" lon="1.968594">
        <ele>168.4</ele>
        <time>2015-08-25T13:05:30Z</time>
      </trkpt>
      <trkpt lat="43.758242" lon="1.968736">
        <ele>167.1</ele>
        <time>2015-08-25T13:06:14Z</time>
      </trkpt>
      <trkpt lat="43.758253" lon="1.968902">
        <ele>167.1</ele>
        <time>2015-08-25T13:06:18Z</time>
      </trkpt>
      <trkpt lat="43.758260" lon="1.969041">
        <ele>167.6</ele>
        <time>2015-08-25T13:06:22Z</time>
      </trkpt>
      <trkpt lat="43.758261" lon="1.969180">
        <ele>167.0</ele>
        <time>2015-08-25T13:06:26Z</time>
      </trkpt>
      <trkpt lat="43.758274" lon="1.969319">
        <ele>166.7</ele>
        <time>2015-08-25T13:06:30Z</time>
      </trkpt>
      <trkpt lat="43.758281" lon="1.969462">
        <ele>166.0</ele>
        <time>2015-08-25T13:06:34Z</time>
      </trkpt>
      <trkpt lat="43.758275" lon="1.969599">
        <ele>166.1</ele>
        <time>2015-08-25T13:06:38Z</time>
      </trkpt>
      <trkpt lat="43.758288" lon="1.969742">
        <ele>165.6</ele>
        <time>2015-08-25T13:06:42Z</time>
      </trkpt>
      <trkpt lat="43.758281" lon="1.969882">
        <ele>164.9</ele>
        <time>2015-08-25T13:06:47Z</time>
      </trkpt>
      <trkpt lat="43.758293" lon="1.970019">
        <ele>164.6</ele>
        <time>2015-08-25T13:06:51Z</time>
      </trkpt>
      <trkpt lat="43.758309" lon="1.970146">
        <ele>165.6</ele>
        <time>2015-08-25T13:06:55Z</time>
      </trkpt>
      <trkpt lat="43.758350" lon="1.970280">
        <ele>165.6</ele>
        <time>2015-08-25T13:06:59Z</time>
      </trkpt>
      <trkpt lat="43.758364" lon="1.970433">
        <ele>166.3</ele>
        <time>2015-08-25T13:07:03Z</time>
      </trkpt>
      <trkpt lat="43.758381" lon="1.970583">
        <ele>166.8</ele>
        <time>2015-08-25T13:07:07Z</time>
      </trkpt>
      <trkpt lat="43.758399" lon="1.970729">
        <ele>167.1</ele>
        <time>2015-08-25T13:07:12Z</time>
      </trkpt>
      <trkpt lat="43.758435" lon="1.970869">
        <ele>166.9</ele>
        <time>2015-08-25T13:07:17Z</time>
      </trkpt>
      <trkpt lat="43.758462" lon="1.970992">
        <ele>166.3</ele>
        <time>2015-08-25T13:07:22Z</time>
      </trkpt>
      <trkpt lat="43.758519" lon="1.971098">
        <ele>166.1</ele>
        <time>2015-08-25T13:07:28Z</time>
      </trkpt>
    </trkseg>
  </trk>
</gpx>

